Observation data for Palo Duro Canyon State Park Rim on 02/15/2020      Previous  Date  Next       Current Mesonet Observations  Soil Data  Daily Summary Page  Observations in Plain Language
KPD1 150600Z 18009KT 01/M00 A3008 RMK A01 T00101003  RH  091%=      5-min Rain = 0
KPD1 150601Z 19007KT 01/M00 A3008 RMK A01 T00101002  RH  091%=      5-min Rain = 0
KPD1 150602Z 19010KT 01/M00 A3008 RMK A01 T00101002  RH  091%=      5-min Rain = 0
KPD1 150603Z 18007KT 01/M00 A3008 RMK A01 T00111001  RH  092%=      5-min Rain = 0
KPD1 150604Z 19008KT 01/M00 A3008 RMK A01 T00121001  RH  091%=      5-min Rain = 0
KPD1 150605Z 19010KT 01/M00 A3008 RMK A01 T00121002  RH  091%=      5-min Rain = 0
KPD1 150606Z 19010KT 01/M00 A3008 RMK A01 T00121001  RH  091%=      5-min Rain = 0
KPD1 150607Z 20008KT 01/M00 A3008 RMK A01 T00121001  RH  091%=      5-min Rain = 0
KPD1 150608Z 18005KT 01/M00 A3008 RMK A01 T00131001  RH  091%=      5-min Rain = 0
KPD1 150609Z 19007KT 01/M00 A3008 RMK A01 T00121001  RH  091%=      5-min Rain = 0
KPD1 150610Z 20007KT 01/M00 A3008 RMK A01 T00121002  RH  090%=      5-min Rain = 0
KPD1 150611Z 19005KT 01/M00 A3008 RMK A01 T00121002  RH  090%=      5-min Rain = 0
KPD1 150612Z 19007KT 01/M00 A3008 RMK A01 T00111003  RH  090%=      5-min Rain = 0
KPD1 150613Z 19005KT 01/M00 A3008 RMK A01 T00101004  RH  090%=      5-min Rain = 0
KPD1 150614Z 18005KT 01/M01 A3008 RMK A01 T00091005  RH  090%=      5-min Rain = 0
KPD1 150615Z 19006KT 01/M01 A3008 RMK A01 T00091005  RH  091%=      5-min Rain = 0
KPD1 150616Z 19007KT 01/M00 A3008 RMK A01 T00091004  RH  091%=      5-min Rain = 0
KPD1 150617Z 19009KT 01/M00 A3008 RMK A01 T00091004  RH  091%=      5-min Rain = 0
KPD1 150618Z 20008KT 01/M00 A3008 RMK A01 T00101002  RH  092%=      5-min Rain = 0
KPD1 150619Z 21007KT 01/M00 A3008 RMK A01 T00111001  RH  092%=      5-min Rain = 0
KPD1 150620Z 20007KT 01/M00 A3008 RMK A01 T00111001  RH  092%=      5-min Rain = 0
KPD1 150621Z 20007KT 01/M00 A3008 RMK A01 T00111001  RH  091%=      5-min Rain = 0
KPD1 150622Z 19010KT 01/M00 A3008 RMK A01 T00111002  RH  091%=      5-min Rain = 0
KPD1 150623Z 19011G17KT 01/00 A3007 RMK A01 T00120000  RH  092%=      5-min Rain = 0
KPD1 150624Z 19010KT 01/00 A3007 RMK A01 T00140001  RH  092%=      5-min Rain = 0
KPD1 150625Z 18008KT 01/00 A3007 RMK A01 T00140001  RH  091%=      5-min Rain = 0
KPD1 150626Z 19009KT 01/00 A3007 RMK A01 T00140000  RH  091%=      5-min Rain = 0
KPD1 150627Z 19009KT 01/00 A3007 RMK A01 T00140000  RH  090%=      5-min Rain = 0
KPD1 150628Z 19008KT 01/00 A3007 RMK A01 T00140000  RH  090%=      5-min Rain = 0
KPD1 150629Z 19008KT 01/00 A3007 RMK A01 T001400-0  RH  090%=      5-min Rain = 0
KPD1 150630Z 20008KT 01/00 A3007 RMK A01 T001400-0  RH  090%=      5-min Rain = 0
KPD1 150631Z 19007KT 01/00 A3007 RMK A01 T00140000  RH  090%=      5-min Rain = 0
KPD1 150632Z 19010KT 01/00 A3007 RMK A01 T00140000  RH  090%=      5-min Rain = 0
KPD1 150633Z 18009KT 02/00 A3007 RMK A01 T00160002  RH  091%=      5-min Rain = 0
KPD1 150634Z 19010KT 02/00 A3007 RMK A01 T00160001  RH  090%=      5-min Rain = 0
KPD1 150635Z 20009KT 02/00 A3007 RMK A01 T00160001  RH  090%=      5-min Rain = 0
KPD1 150636Z 18008KT 02/00 A3007 RMK A01 T00170002  RH  090%=      5-min Rain = 0
KPD1 150637Z 17009KT 02/00 A3007 RMK A01 T00160001  RH  090%=      5-min Rain = 0
KPD1 150638Z 18006KT 02/00 A3007 RMK A01 T00170002  RH  090%=      5-min Rain = 0
KPD1 150639Z 20009KT 02/00 A3007 RMK A01 T00170001  RH  089%=      5-min Rain = 0
KPD1 150640Z 20008KT 02/00 A3007 RMK A01 T00170001  RH  089%=      5-min Rain = 0
KPD1 150641Z 20005KT 02/00 A3007 RMK A01 T00170002  RH  090%=      5-min Rain = 0
KPD1 150642Z 19007KT 02/00 A3007 RMK A01 T00170002  RH  089%=      5-min Rain = 0
KPD1 150643Z 18007KT 02/00 A3007 RMK A01 T00170002  RH  089%=      5-min Rain = 0
KPD1 150644Z 20008KT 02/00 A3007 RMK A01 T00170001  RH  089%=      5-min Rain = 0
KPD1 150645Z 20007KT 02/00 A3007 RMK A01 T00170002  RH  090%=      5-min Rain = 0
KPD1 150646Z 18008KT 02/00 A3007 RMK A01 T00180003  RH  090%=      5-min Rain = 0
KPD1 150647Z 19007KT 02/00 A3007 RMK A01 T00180002  RH  089%=      5-min Rain = 0
KPD1 150648Z 19009KT 02/00 A3007 RMK A01 T00180002  RH  089%=      5-min Rain = 0
KPD1 150649Z 19008KT 02/00 A3007 RMK A01 T00180002  RH  089%=      5-min Rain = 0
KPD1 150650Z 19009KT 02/00 A3007 RMK A01 T00190003  RH  089%=      5-min Rain = 0
KPD1 150651Z 19010KT 02/00 A3007 RMK A01 T00190003  RH  089%=      5-min Rain = 0
KPD1 150652Z 20011KT 02/01 A3007 RMK A01 T00210005  RH  089%=      5-min Rain = 0
KPD1 150653Z 19006G12KT 02/01 A3007 RMK A01 T00210005  RH  089%=      5-min Rain = 0
KPD1 150654Z 21010KT 02/01 A3007 RMK A01 T00220005  RH  089%=      5-min Rain = 0
KPD1 150655Z 20008KT 02/00 A3006 RMK A01 T00220004  RH  088%=      5-min Rain = 0
KPD1 150656Z 20009G14KT 02/00 A3007 RMK A01 T00210004  RH  088%=      5-min Rain = 0
KPD1 150657Z 19008G13KT 02/00 A3007 RMK A01 T00220004  RH  088%=      5-min Rain = 0
KPD1 150658Z 20011G16KT 02/00 A3006 RMK A01 T00220004  RH  088%=      5-min Rain = 0
KPD1 150659Z 20011KT 02/01 A3006 RMK A01 T00230005  RH  088%=      5-min Rain = 0
KPD1 150700Z 19007KT 02/01 A3006 RMK A01 T00240005  RH  088%=      5-min Rain = 0
KPD1 150701Z 19011KT 02/00 A3006 RMK A01 T00240004  RH  087%=      5-min Rain = 0
KPD1 150702Z 18007KT 02/00 A3006 RMK A01 T00230004  RH  087%=      5-min Rain = 0
KPD1 150703Z 19009KT 02/00 A3006 RMK A01 T00230003  RH  087%=      5-min Rain = 0
KPD1 150704Z 19011G16KT 02/00 A3006 RMK A01 T00230003  RH  087%=      5-min Rain = 0
KPD1 150705Z 20010KT 02/00 A3006 RMK A01 T00230004  RH  087%=      5-min Rain = 0
KPD1 150706Z 21014G19KT 02/01 A3006 RMK A01 T00230005  RH  087%=      5-min Rain = 0
KPD1 150707Z 21010KT 02/01 A3006 RMK A01 T00240005  RH  087%=      5-min Rain = 0
KPD1 150708Z 21011KT 02/01 A3006 RMK A01 T00240005  RH  087%=      5-min Rain = 0
KPD1 150709Z 20010G16KT 02/00 A3006 RMK A01 T00240004  RH  087%=      5-min Rain = 0
KPD1 150710Z 19010KT 02/00 A3006 RMK A01 T00240004  RH  087%=      5-min Rain = 0
KPD1 150711Z 20011G18KT 02/00 A3006 RMK A01 T00240004  RH  087%=      5-min Rain = 0
KPD1 150712Z 19013KT 02/00 A3006 RMK A01 T00230003  RH  087%=      5-min Rain = 0
KPD1 150713Z 20014G21KT 02/00 A3006 RMK A01 T00230004  RH  087%=      5-min Rain = 0
KPD1 150714Z 20012KT 02/00 A3006 RMK A01 T00240004  RH  087%=      5-min Rain = 0
KPD1 150715Z 21011KT 02/01 A3006 RMK A01 T00240005  RH  087%=      5-min Rain = 0
KPD1 150716Z 20009KT 02/00 A3006 RMK A01 T00240004  RH  087%=      5-min Rain = 0
KPD1 150717Z 21010KT 02/00 A3006 RMK A01 T00240004  RH  087%=      5-min Rain = 0
KPD1 150718Z 20011KT 02/00 A3006 RMK A01 T00230003  RH  087%=      5-min Rain = 0
KPD1 150719Z 20010KT 02/00 A3006 RMK A01 T00240004  RH  087%=      5-min Rain = 0
KPD1 150720Z 19011KT 02/00 A3006 RMK A01 T00230004  RH  087%=      5-min Rain = 0
KPD1 150721Z 21011KT 02/00 A3006 RMK A01 T00230004  RH  087%=      5-min Rain = 0
KPD1 150722Z 20010G15KT 02/00 A3006 RMK A01 T00230004  RH  087%=      5-min Rain = 0
KPD1 150723Z 20011KT 02/00 A3006 RMK A01 T00240004  RH  087%=      5-min Rain = 0
KPD1 150724Z 21012G19KT 02/00 A3006 RMK A01 T00230003  RH  087%=      5-min Rain = 0
KPD1 150725Z 20009KT 02/00 A3006 RMK A01 T00230003  RH  087%=      5-min Rain = 0
KPD1 150726Z 21011KT 02/00 A3006 RMK A01 T00230003  RH  087%=      5-min Rain = 0
KPD1 150727Z 20014KT 02/00 A3006 RMK A01 T00230003  RH  087%=      5-min Rain = 0
KPD1 150728Z 20010KT 02/00 A3005 RMK A01 T00230003  RH  087%=      5-min Rain = 0
KPD1 150729Z 20013KT 02/00 A3005 RMK A01 T00220003  RH  087%=      5-min Rain = 0
KPD1 150730Z 20012KT 02/00 A3005 RMK A01 T00230003  RH  087%=      5-min Rain = 0
KPD1 150731Z 21012KT 02/00 A3005 RMK A01 T00220003  RH  087%=      5-min Rain = 0
KPD1 150732Z 20009G14KT 02/00 A3005 RMK A01 T00220003  RH  087%=      5-min Rain = 0
KPD1 150733Z 20011KT 02/00 A3005 RMK A01 T00220003  RH  087%=      5-min Rain = 0
KPD1 150734Z 20012KT 02/00 A3005 RMK A01 T00220003  RH  087%=      5-min Rain = 0
KPD1 150735Z 21009KT 02/00 A3005 RMK A01 T00220003  RH  087%=      5-min Rain = 0
KPD1 150736Z 20009KT 02/00 A3005 RMK A01 T00220003  RH  087%=      5-min Rain = 0
KPD1 150737Z 21010KT 02/00 A3005 RMK A01 T00220003  RH  087%=      5-min Rain = 0
KPD1 150738Z 20010KT 02/00 A3005 RMK A01 T00210002  RH  087%=      5-min Rain = 0
KPD1 150739Z 20011KT 02/00 A3005 RMK A01 T00210002  RH  087%=      5-min Rain = 0
KPD1 150740Z 20014G21KT 02/00 A3005 RMK A01 T00210003  RH  088%=      5-min Rain = 0
KPD1 150741Z 20016KT 02/00 A3005 RMK A01 T00220003  RH  088%=      5-min Rain = 0
KPD1 150742Z 20015KT 02/00 A3005 RMK A01 T00220004  RH  088%=      5-min Rain = 0
KPD1 150743Z 21014G19KT 02/00 A3004 RMK A01 T00230004  RH  087%=      5-min Rain = 0
KPD1 150744Z 20012G17KT 02/00 A3004 RMK A01 T00230004  RH  087%=      5-min Rain = 0
KPD1 150745Z 20014G21KT 02/00 A3004 RMK A01 T00230003  RH  087%=      5-min Rain = 0
KPD1 150746Z 20013KT 02/00 A3004 RMK A01 T00230004  RH  087%=      5-min Rain = 0
KPD1 150747Z 21015KT 02/00 A3004 RMK A01 T00230004  RH  087%=      5-min Rain = 0
KPD1 150748Z 20011G17KT 02/00 A3004 RMK A01 T00240004  RH  087%=      5-min Rain = 0
KPD1 150749Z 20012G17KT 02/00 A3004 RMK A01 T00230003  RH  087%=      5-min Rain = 0
KPD1 150750Z 20017KT 02/00 A3004 RMK A01 T00230003  RH  087%=      5-min Rain = 0
KPD1 150751Z 20015KT 02/00 A3004 RMK A01 T00240004  RH  087%=      5-min Rain = 0
KPD1 150752Z 21014G20KT 02/00 A3004 RMK A01 T00240004  RH  087%=      5-min Rain = 0
KPD1 150753Z 20011G17KT 02/00 A3004 RMK A01 T00240004  RH  087%=      5-min Rain = 0
KPD1 150754Z 20011KT 02/00 A3004 RMK A01 T00240004  RH  086%=      5-min Rain = 0
KPD1 150755Z 20011KT 02/00 A3004 RMK A01 T00240004  RH  087%=      5-min Rain = 0
KPD1 150756Z 19012G18KT 02/00 A3004 RMK A01 T00240004  RH  087%=      5-min Rain = 0
KPD1 150757Z 21013G19KT 02/00 A3004 RMK A01 T00240004  RH  087%=      5-min Rain = 0
KPD1 150758Z 21013G19KT 02/01 A3004 RMK A01 T00240005  RH  087%=      5-min Rain = 0
KPD1 150759Z 20016G23KT 03/01 A3004 RMK A01 T00250005  RH  087%=      5-min Rain = 0
KPD1 150800Z 21011KT 03/01 A3004 RMK A01 T00260006  RH  086%=      5-min Rain = 0
KPD1 150801Z 20013G18KT 03/01 A3003 RMK A01 T00270005  RH  086%=      5-min Rain = 0
KPD1 150802Z 21009KT 03/01 A3004 RMK A01 T00270005  RH  086%=      5-min Rain = 0
KPD1 150803Z 20010G17KT 03/01 A3004 RMK A01 T00260005  RH  086%=      5-min Rain = 0
KPD1 150804Z 21011G16KT 03/00 A3004 RMK A01 T00260004  RH  086%=      5-min Rain = 0
KPD1 150805Z 20012G17KT 03/01 A3004 RMK A01 T00260005  RH  086%=      5-min Rain = 0
KPD1 150806Z 21010KT 03/01 A3004 RMK A01 T00260005  RH  086%=      5-min Rain = 0
KPD1 150807Z 20011G17KT 03/01 A3004 RMK A01 T00260005  RH  086%=      5-min Rain = 0
KPD1 150808Z 20010KT 03/01 A3004 RMK A01 T00270005  RH  086%=      5-min Rain = 0
KPD1 150809Z 21013KT 03/01 A3004 RMK A01 T00270005  RH  085%=      5-min Rain = 0
KPD1 150810Z 20009G14KT 03/01 A3003 RMK A01 T00270005  RH  085%=      5-min Rain = 0
KPD1 150811Z 21010KT 03/01 A3003 RMK A01 T00270005  RH  085%=      5-min Rain = 0
KPD1 150812Z 22009KT 03/01 A3004 RMK A01 T00270005  RH  085%=      5-min Rain = 0
KPD1 150813Z 21008KT 03/01 A3004 RMK A01 T00270005  RH  085%=      5-min Rain = 0
KPD1 150814Z 21010KT 03/01 A3003 RMK A01 T00270005  RH  085%=      5-min Rain = 0
KPD1 150815Z 22009KT 03/01 A3003 RMK A01 T00270005  RH  085%=      5-min Rain = 0
KPD1 150816Z 22010G15KT 03/01 A3003 RMK A01 T00280005  RH  085%=      5-min Rain = 0
KPD1 150817Z 22009G14KT 03/01 A3003 RMK A01 T00280005  RH  085%=      5-min Rain = 0
KPD1 150818Z 22010KT 03/01 A3004 RMK A01 T00280005  RH  085%=      5-min Rain = 0
KPD1 150819Z 21012KT 03/01 A3003 RMK A01 T00280005  RH  085%=      5-min Rain = 0
KPD1 150820Z 21011KT 03/00 A3003 RMK A01 T00270004  RH  085%=      5-min Rain = 0
KPD1 150821Z 22013KT 03/01 A3003 RMK A01 T00270005  RH  085%=      5-min Rain = 0
KPD1 150822Z 22013KT 03/01 A3003 RMK A01 T00270005  RH  085%=      5-min Rain = 0
KPD1 150823Z 21012KT 03/01 A3003 RMK A01 T00280005  RH  085%=      5-min Rain = 0
KPD1 150824Z 22012KT 03/01 A3003 RMK A01 T00280005  RH  085%=      5-min Rain = 0
KPD1 150825Z 22010G15KT 03/01 A3003 RMK A01 T00270005  RH  085%=      5-min Rain = 0
KPD1 150826Z 21010G18KT 03/01 A3003 RMK A01 T00270005  RH  085%=      5-min Rain = 0
KPD1 150827Z 21009G14KT 03/01 A3004 RMK A01 T00270005  RH  085%=      5-min Rain = 0
KPD1 150828Z 22013G18KT 03/01 A3004 RMK A01 T00270005  RH  085%=      5-min Rain = 0
KPD1 150829Z 22016G21KT 03/01 A3003 RMK A01 T00270005  RH  085%=      5-min Rain = 0
KPD1 150830Z 22014KT 03/01 A3003 RMK A01 T00280005  RH  085%=      5-min Rain = 0
KPD1 150831Z 22012KT 03/01 A3003 RMK A01 T00280005  RH  085%=      5-min Rain = 0
KPD1 150832Z 22013G18KT 03/01 A3003 RMK A01 T00280005  RH  085%=      5-min Rain = 0
KPD1 150833Z 22013G18KT 03/01 A3003 RMK A01 T00280005  RH  085%=      5-min Rain = 0
KPD1 150834Z 21014G22KT 03/01 A3003 RMK A01 T00290005  RH  085%=      5-min Rain = 0
KPD1 150835Z 21014KT 03/01 A3003 RMK A01 T00280005  RH  085%=      5-min Rain = 0
KPD1 150836Z 22015KT 03/01 A3003 RMK A01 T00280005  RH  085%=      5-min Rain = 0
KPD1 150837Z 22015G20KT 03/01 A3003 RMK A01 T00280005  RH  085%=      5-min Rain = 0
KPD1 150838Z 22012G17KT 03/01 A3003 RMK A01 T00280005  RH  085%=      5-min Rain = 0
KPD1 150839Z 22012KT 03/01 A3003 RMK A01 T00280005  RH  084%=      5-min Rain = 0
KPD1 150840Z 21010KT 03/01 A3003 RMK A01 T00290005  RH  085%=      5-min Rain = 0
KPD1 150841Z 22013G18KT 03/01 A3003 RMK A01 T00280005  RH  085%=      5-min Rain = 0
KPD1 150842Z 22013G20KT 03/01 A3003 RMK A01 T00280005  RH  085%=      5-min Rain = 0
KPD1 150843Z 22015G20KT 03/01 A3003 RMK A01 T00280005  RH  085%=      5-min Rain = 0
KPD1 150844Z 22016G21KT 03/01 A3003 RMK A01 T00280005  RH  085%=      5-min Rain = 0
KPD1 150845Z 22014G19KT 03/01 A3002 RMK A01 T00280005  RH  085%=      5-min Rain = 0
KPD1 150846Z 22012G20KT 03/01 A3002 RMK A01 T00290005  RH  085%=      5-min Rain = 0
KPD1 150847Z 22014G19KT 03/01 A3002 RMK A01 T00290005  RH  084%=      5-min Rain = 0
KPD1 150848Z 21011G16KT 03/01 A3002 RMK A01 T00280005  RH  084%=      5-min Rain = 0
KPD1 150849Z 22013KT 03/01 A3002 RMK A01 T00280005  RH  085%=      5-min Rain = 0
KPD1 150850Z 21012G18KT 03/01 A3002 RMK A01 T00280005  RH  085%=      5-min Rain = 0
KPD1 150851Z 22011G16KT 03/01 A3002 RMK A01 T00280005  RH  085%=      5-min Rain = 0
KPD1 150852Z 22014KT 03/00 A3002 RMK A01 T00270004  RH  085%=      5-min Rain = 0
KPD1 150853Z 22016KT 03/00 A3002 RMK A01 T00280004  RH  085%=      5-min Rain = 0
KPD1 150854Z 22015G20KT 03/00 A3002 RMK A01 T00280004  RH  085%=      5-min Rain = 0
KPD1 150855Z 21012KT 03/01 A3002 RMK A01 T00280005  RH  085%=      5-min Rain = 0
KPD1 150856Z 21015G21KT 03/00 A3002 RMK A01 T00280004  RH  084%=      5-min Rain = 0
KPD1 150857Z 21014G19KT 03/00 A3002 RMK A01 T00280004  RH  084%=      5-min Rain = 0
KPD1 150858Z 21014KT 03/00 A3001 RMK A01 T00280004  RH  084%=      5-min Rain = 0
KPD1 150859Z 22015G24KT 03/00 A3001 RMK A01 T00280004  RH  084%=      5-min Rain = 0
KPD1 150900Z 22015KT 03/00 A3001 RMK A01 T00280004  RH  084%=      5-min Rain = 0
KPD1 150901Z 22012G17KT 03/01 A3001 RMK A01 T00290005  RH  084%=      5-min Rain = 0
KPD1 150902Z 22012G17KT 03/01 A3001 RMK A01 T00290005  RH  084%=      5-min Rain = 0
KPD1 150903Z 22017KT 03/01 A3001 RMK A01 T00290005  RH  084%=      5-min Rain = 0
KPD1 150904Z 22014G23KT 03/01 A3001 RMK A01 T00290005  RH  084%=      5-min Rain = 0
KPD1 150905Z 22014G20KT 03/01 A3001 RMK A01 T00290005  RH  084%=      5-min Rain = 0
KPD1 150906Z 22015KT 03/00 A3001 RMK A01 T00290004  RH  084%=      5-min Rain = 0
KPD1 150907Z 22014KT 03/01 A3001 RMK A01 T00290005  RH  084%=      5-min Rain = 0
KPD1 150908Z 23017G25KT 03/01 A3001 RMK A01 T00290005  RH  084%=      5-min Rain = 0
KPD1 150909Z 21017G22KT 03/01 A3001 RMK A01 T00290005  RH  084%=      5-min Rain = 0
KPD1 150910Z 22013G20KT 03/01 A3001 RMK A01 T00290005  RH  084%=      5-min Rain = 0
KPD1 150911Z 22014KT 03/01 A3001 RMK A01 T00290005  RH  084%=      5-min Rain = 0
KPD1 150912Z 22016KT 03/01 A3001 RMK A01 T00300005  RH  084%=      5-min Rain = 0
KPD1 150913Z 21012KT 03/01 A3001 RMK A01 T00300006  RH  084%=      5-min Rain = 0
KPD1 150914Z 21015G20KT 03/01 A3001 RMK A01 T00300005  RH  084%=      5-min Rain = 0
KPD1 150915Z 21013G18KT 03/01 A3001 RMK A01 T00310006  RH  084%=      5-min Rain = 0
KPD1 150916Z 22015G21KT 03/01 A3001 RMK A01 T00310005  RH  084%=      5-min Rain = 0
KPD1 150917Z 22016KT 03/01 A3001 RMK A01 T00310006  RH  084%=      5-min Rain = 0
KPD1 150918Z 21018G23KT 03/01 A3001 RMK A01 T00310006  RH  084%=      5-min Rain = 0
KPD1 150919Z 22016G22KT 03/01 A3001 RMK A01 T00310006  RH  083%=      5-min Rain = 0
KPD1 150920Z 21014G20KT 03/01 A3001 RMK A01 T00320006  RH  083%=      5-min Rain = 0
KPD1 150921Z 22017G25KT 03/01 A3001 RMK A01 T00320006  RH  083%=      5-min Rain = 0
KPD1 150922Z 22017G25KT 03/01 A3001 RMK A01 T00320006  RH  083%=      5-min Rain = 0
KPD1 150923Z 22016KT 03/01 A3001 RMK A01 T00330007  RH  083%=      5-min Rain = 0
KPD1 150924Z 22016G21KT 03/01 A3001 RMK A01 T00330007  RH  083%=      5-min Rain = 0
KPD1 150925Z 21018KT 03/01 A3001 RMK A01 T00330006  RH  083%=      5-min Rain = 0
KPD1 150926Z 22016G23KT 03/01 A3001 RMK A01 T00320006  RH  083%=      5-min Rain = 0
KPD1 150927Z 22016KT 03/01 A3001 RMK A01 T00320006  RH  083%=      5-min Rain = 0
KPD1 150928Z 22014KT 03/01 A3001 RMK A01 T00330006  RH  083%=      5-min Rain = 0
KPD1 150929Z 22016G23KT 03/01 A30 RMK A01 T00320006  RH  083%=      5-min Rain = 0
KPD1 150930Z 22014G20KT 03/01 A3001 RMK A01 T00320006  RH  083%=      5-min Rain = 0
KPD1 150931Z 22017G22KT 03/01 A3001 RMK A01 T00320006  RH  083%=      5-min Rain = 0
KPD1 150932Z 22019KT 03/01 A3001 RMK A01 T00320006  RH  083%=      5-min Rain = 0
KPD1 150933Z 22017KT 03/01 A3001 RMK A01 T00320006  RH  083%=      5-min Rain = 0
KPD1 150934Z 22014G20KT 03/01 A30 RMK A01 T00330006  RH  083%=      5-min Rain = 0
KPD1 150935Z 22014G19KT 03/01 A3001 RMK A01 T00320006  RH  083%=      5-min Rain = 0
KPD1 150936Z 22015G20KT 03/01 A3001 RMK A01 T00320006  RH  083%=      5-min Rain = 0
KPD1 150937Z 22012G18KT 03/01 A3001 RMK A01 T00320006  RH  083%=      5-min Rain = 0
KPD1 150938Z 22018G26KT 03/01 A30 RMK A01 T00310006  RH  083%=      5-min Rain = 0
KPD1 150939Z 22019G25KT 03/01 A30 RMK A01 T00320006  RH  083%=      5-min Rain = 0
KPD1 150940Z 22013KT 03/01 A30 RMK A01 T00310006  RH  083%=      5-min Rain = 0
KPD1 150941Z 22019G24KT 03/01 A30 RMK A01 T00310005  RH  083%=      5-min Rain = 0
KPD1 150942Z 22015G21KT 03/01 A3001 RMK A01 T00320006  RH  083%=      5-min Rain = 0
KPD1 150943Z 22014G19KT 03/01 A30 RMK A01 T00320006  RH  083%=      5-min Rain = 0
KPD1 150944Z 22015KT 03/01 A3001 RMK A01 T00320006  RH  083%=      5-min Rain = 0
KPD1 150945Z 22012G17KT 03/01 A30 RMK A01 T00320006  RH  083%=      5-min Rain = 0
KPD1 150946Z 22018G29KT 03/01 A30 RMK A01 T00310006  RH  083%=      5-min Rain = 0
KPD1 150947Z 22013KT 03/01 A30 RMK A01 T00310006  RH  083%=      5-min Rain = 0
KPD1 150948Z 22018G25KT 03/01 A30 RMK A01 T00310006  RH  083%=      5-min Rain = 0
KPD1 150949Z 21019G25KT 03/01 A30 RMK A01 T00310006  RH  083%=      5-min Rain = 0
KPD1 150950Z 22018G27KT 03/01 A30 RMK A01 T00320006  RH  083%=      5-min Rain = 0
KPD1 150951Z 21015G22KT 03/01 A30 RMK A01 T00320006  RH  083%=      5-min Rain = 0
KPD1 150952Z 22017G22KT 03/01 A30 RMK A01 T00320007  RH  083%=      5-min Rain = 0
KPD1 150953Z 22017G25KT 03/01 A30 RMK A01 T00320006  RH  083%=      5-min Rain = 0
KPD1 150954Z 21016KT 03/01 A30 RMK A01 T00320006  RH  083%=      5-min Rain = 0
KPD1 150955Z 21014G21KT 03/01 A30 RMK A01 T00320006  RH  083%=      5-min Rain = 0
KPD1 150956Z 22016G27KT 03/01 A30 RMK A01 T00320006  RH  083%=      5-min Rain = 0
KPD1 150957Z 21017G27KT 03/01 A30 RMK A01 T00320006  RH  083%=      5-min Rain = 0
KPD1 150958Z 22018G25KT 03/01 A30 RMK A01 T00320006  RH  083%=      5-min Rain = 0
KPD1 150959Z 22016KT 03/01 A30 RMK A01 T00320006  RH  083%=      5-min Rain = 0
KPD1 151000Z 22017G27KT 03/01 A30 RMK A01 T00320006  RH  083%=      5-min Rain = 0
KPD1 151001Z 21018G23KT 03/01 A30 RMK A01 T00320006  RH  083%=      5-min Rain = 0
KPD1 151002Z 21014KT 03/01 A30 RMK A01 T00320006  RH  083%=      5-min Rain = 0
KPD1 151003Z 21017G23KT 03/01 A30 RMK A01 T00320006  RH  083%=      5-min Rain = 0
KPD1 151004Z 22023G28KT 03/01 A30 RMK A01 T00310006  RH  083%=      5-min Rain = 0
KPD1 151005Z 22019KT 03/01 A30 RMK A01 T00320006  RH  083%=      5-min Rain = 0
KPD1 151006Z 22020G26KT 03/01 A30 RMK A01 T00320006  RH  083%=      5-min Rain = 0
KPD1 151007Z 22017G22KT 03/01 A30 RMK A01 T00320006  RH  083%=      5-min Rain = 0
KPD1 151008Z 22019KT 03/01 A30 RMK A01 T00320005  RH  083%=      5-min Rain = 0
KPD1 151009Z 22016G21KT 03/01 A30 RMK A01 T00320006  RH  083%=      5-min Rain = 0
KPD1 151010Z 22017G22KT 03/01 A30 RMK A01 T00310005  RH  083%=      5-min Rain = 0
KPD1 151011Z 22016G21KT 03/01 A30 RMK A01 T00310005  RH  083%=      5-min Rain = 0
KPD1 151012Z 22016KT 03/01 A30 RMK A01 T00300005  RH  083%=      5-min Rain = 0
KPD1 151013Z 22016G22KT 03/01 A30 RMK A01 T00300005  RH  084%=      5-min Rain = 0
KPD1 151014Z 22018G24KT 03/01 A2999 RMK A01 T00300005  RH  084%=      5-min Rain = 0
KPD1 151015Z 22016G22KT 03/01 A30 RMK A01 T00300005  RH  084%=      5-min Rain = 0
KPD1 151016Z 22018KT 03/00 A2999 RMK A01 T00300004  RH  084%=      5-min Rain = 0
KPD1 151017Z 23018G26KT 03/00 A2999 RMK A01 T00290004  RH  084%=      5-min Rain = 0
KPD1 151018Z 22018KT 03/01 A2999 RMK A01 T00300005  RH  084%=      5-min Rain = 0
KPD1 151019Z 22015G21KT 03/01 A2999 RMK A01 T00290005  RH  084%=      5-min Rain = 0
KPD1 151020Z 22014G20KT 03/00 A2999 RMK A01 T00290004  RH  084%=      5-min Rain = 0
KPD1 151021Z 22020G27KT 03/00 A2999 RMK A01 T00290004  RH  084%=      5-min Rain = 0
KPD1 151022Z 22017KT 03/00 A2999 RMK A01 T00280004  RH  084%=      5-min Rain = 0
KPD1 151023Z 22014G20KT 03/00 A2999 RMK A01 T00280004  RH  084%=      5-min Rain = 0
KPD1 151024Z 21022KT 03/00 A2999 RMK A01 T00280004  RH  084%=      5-min Rain = 0
KPD1 151025Z 22017G22KT 03/00 A2999 RMK A01 T00280004  RH  084%=      5-min Rain = 0
KPD1 151026Z 22017G23KT 03/00 A2999 RMK A01 T00280004  RH  084%=      5-min Rain = 0
KPD1 151027Z 22015KT 03/00 A2999 RMK A01 T00280003  RH  084%=      5-min Rain = 0
KPD1 151028Z 22020G26KT 03/00 A2999 RMK A01 T00270003  RH  084%=      5-min Rain = 0
KPD1 151029Z 22014KT 03/00 A2999 RMK A01 T00270003  RH  085%=      5-min Rain = 0
KPD1 151030Z 22018KT 03/00 A2999 RMK A01 T00270003  RH  085%=      5-min Rain = 0
KPD1 151031Z 22018KT 03/00 A2999 RMK A01 T00270003  RH  085%=      5-min Rain = 0
KPD1 151032Z 22016G22KT 03/00 A2999 RMK A01 T00270003  RH  085%=      5-min Rain = 0
KPD1 151033Z 22020KT 03/00 A2999 RMK A01 T00260003  RH  085%=      5-min Rain = 0
KPD1 151034Z 22018KT 03/00 A2999 RMK A01 T00270004  RH  085%=      5-min Rain = 0
KPD1 151035Z 23015G20KT 03/00 A2999 RMK A01 T00270003  RH  085%=      5-min Rain = 0
KPD1 151036Z 22013G18KT 03/00 A2999 RMK A01 T00270003  RH  085%=      5-min Rain = 0
KPD1 151037Z 22014G19KT 03/00 A2999 RMK A01 T00260002  RH  085%=      5-min Rain = 0
KPD1 151038Z 23016G23KT 03/00 A2999 RMK A01 T00250003  RH  085%=      5-min Rain = 0
KPD1 151039Z 22016G22KT 03/00 A2999 RMK A01 T00260003  RH  085%=      5-min Rain = 0
KPD1 151040Z 22015G21KT 03/00 A2999 RMK A01 T00260003  RH  085%=      5-min Rain = 0
KPD1 151041Z 22015G21KT 03/00 A2999 RMK A01 T00260003  RH  085%=      5-min Rain = 0
KPD1 151042Z 23017G22KT 03/00 A2999 RMK A01 T00260003  RH  085%=      5-min Rain = 0
KPD1 151043Z 22013KT 03/00 A2999 RMK A01 T00250003  RH  085%=      5-min Rain = 0
KPD1 151044Z 22014KT 03/00 A2999 RMK A01 T00250003  RH  085%=      5-min Rain = 0
KPD1 151045Z 23016G22KT 03/00 A2999 RMK A01 T00250003  RH  085%=      5-min Rain = 0
KPD1 151046Z 22015G21KT 03/00 A2999 RMK A01 T00250003  RH  085%=      5-min Rain = 0
KPD1 151047Z 22014KT 03/00 A2999 RMK A01 T00250003  RH  085%=      5-min Rain = 0
KPD1 151048Z 22016KT 03/00 A2999 RMK A01 T00250003  RH  085%=      5-min Rain = 0
KPD1 151049Z 23014KT 03/00 A2999 RMK A01 T00250003  RH  085%=      5-min Rain = 0
KPD1 151050Z 23012KT 03/00 A2999 RMK A01 T00250003  RH  085%=      5-min Rain = 0
KPD1 151051Z 22014G22KT 03/00 A2999 RMK A01 T00250002  RH  085%=      5-min Rain = 0
KPD1 151052Z 22013KT 03/00 A2999 RMK A01 T00250002  RH  085%=      5-min Rain = 0
KPD1 151053Z 22015KT 02/00 A2999 RMK A01 T00240002  RH  085%=      5-min Rain = 0
KPD1 151054Z 22015G21KT 03/00 A2999 RMK A01 T00250003  RH  085%=      5-min Rain = 0
KPD1 151055Z 23016KT 03/00 A2999 RMK A01 T00250003  RH  085%=      5-min Rain = 0
KPD1 151056Z 22013G19KT 03/00 A2999 RMK A01 T00250003  RH  085%=      5-min Rain = 0
KPD1 151057Z 23012G19KT 03/00 A2999 RMK A01 T00250003  RH  085%=      5-min Rain = 0
KPD1 151058Z 22015G22KT 03/00 A2999 RMK A01 T00250003  RH  085%=      5-min Rain = 0
KPD1 151059Z 23013G21KT 03/00 A2999 RMK A01 T00250003  RH  085%=      5-min Rain = 0
KPD1 151100Z 23013G21KT 03/00 A2999 RMK A01 T00250003  RH  085%=      5-min Rain = 0
KPD1 151101Z 22017KT 03/00 A2999 RMK A01 T00250003  RH  085%=      5-min Rain = 0
KPD1 151102Z 23017G25KT 03/00 A2999 RMK A01 T00250003  RH  085%=      5-min Rain = 0
KPD1 151103Z 22017G24KT 03/00 A2999 RMK A01 T00260004  RH  085%=      5-min Rain = 0
KPD1 151104Z 22015G20KT 03/00 A2999 RMK A01 T00260003  RH  085%=      5-min Rain = 0
KPD1 151105Z 22016G25KT 03/00 A2999 RMK A01 T00270004  RH  085%=      5-min Rain = 0
KPD1 151106Z 22017G23KT 03/00 A2999 RMK A01 T00270003  RH  085%=      5-min Rain = 0
KPD1 151107Z 22018G23KT 03/00 A2999 RMK A01 T00260003  RH  085%=      5-min Rain = 0
KPD1 151108Z 22018G24KT 03/00 A2999 RMK A01 T00260003  RH  085%=      5-min Rain = 0
KPD1 151109Z 22017KT 03/00 A2999 RMK A01 T00270003  RH  084%=      5-min Rain = 0
KPD1 151110Z 23017G23KT 03/00 A2999 RMK A01 T00270003  RH  084%=      5-min Rain = 0
KPD1 151111Z 22018G26KT 03/00 A2999 RMK A01 T00270003  RH  084%=      5-min Rain = 0
KPD1 151112Z 22018G25KT 03/00 A2999 RMK A01 T00270003  RH  084%=      5-min Rain = 0
KPD1 151113Z 22019G24KT 03/00 A2998 RMK A01 T00270003  RH  084%=      5-min Rain = 0
KPD1 151114Z 22016KT 03/00 A2999 RMK A01 T00280003  RH  084%=      5-min Rain = 0
KPD1 151115Z 22015G20KT 03/00 A2999 RMK A01 T00270003  RH  084%=      5-min Rain = 0
KPD1 151116Z 22019G24KT 03/00 A2998 RMK A01 T00270003  RH  084%=      5-min Rain = 0
KPD1 151117Z 22018KT 03/00 A2998 RMK A01 T00270003  RH  084%=      5-min Rain = 0
KPD1 151118Z 22015G22KT 03/00 A2998 RMK A01 T00270003  RH  084%=      5-min Rain = 0
KPD1 151119Z 22017KT 03/00 A2998 RMK A01 T00270003  RH  084%=      5-min Rain = 0
KPD1 151120Z 22014G19KT 03/00 A2998 RMK A01 T00270003  RH  084%=      5-min Rain = 0
KPD1 151121Z 22016KT 03/00 A2998 RMK A01 T00270003  RH  084%=      5-min Rain = 0
KPD1 151122Z 22016G22KT 03/00 A2998 RMK A01 T00270003  RH  084%=      5-min Rain = 0
KPD1 151123Z 22017KT 03/00 A2998 RMK A01 T00270003  RH  085%=      5-min Rain = 0
KPD1 151124Z 22012G18KT 03/00 A2998 RMK A01 T00270003  RH  084%=      5-min Rain = 0
KPD1 151125Z 21015G20KT 03/00 A2998 RMK A01 T00260003  RH  084%=      5-min Rain = 0
KPD1 151126Z 22013G19KT 03/00 A2998 RMK A01 T00260002  RH  084%=      5-min Rain = 0
KPD1 151127Z 22016KT 03/00 A2998 RMK A01 T00260003  RH  085%=      5-min Rain = 0
KPD1 151128Z 22015G21KT 03/00 A2998 RMK A01 T00260003  RH  085%=      5-min Rain = 0
KPD1 151129Z 22015G21KT 03/00 A2998 RMK A01 T00260003  RH  085%=      5-min Rain = 0
KPD1 151130Z 22017G22KT 03/00 A2998 RMK A01 T00260003  RH  085%=      5-min Rain = 0
KPD1 151131Z 22014G20KT 03/00 A2998 RMK A01 T00260003  RH  085%=      5-min Rain = 0
KPD1 151132Z 22016G21KT 03/00 A2998 RMK A01 T00260003  RH  084%=      5-min Rain = 0
KPD1 151133Z 22013G18KT 03/00 A2998 RMK A01 T00270003  RH  084%=      5-min Rain = 0
KPD1 151134Z 23015KT 03/00 A2998 RMK A01 T00270003  RH  084%=      5-min Rain = 0
KPD1 151135Z 22013KT 03/00 A2998 RMK A01 T00260003  RH  084%=      5-min Rain = 0
KPD1 151136Z 23012KT 03/00 A2998 RMK A01 T00270003  RH  084%=      5-min Rain = 0
KPD1 151137Z 22012KT 03/00 A2999 RMK A01 T00260003  RH  084%=      5-min Rain = 0
KPD1 151138Z 23013G22KT 03/00 A2999 RMK A01 T00270003  RH  084%=      5-min Rain = 0
KPD1 151139Z 22011KT 03/00 A2999 RMK A01 T00260003  RH  084%=      5-min Rain = 0
KPD1 151140Z 22013G20KT 03/00 A2998 RMK A01 T00260002  RH  084%=      5-min Rain = 0
KPD1 151141Z 22013KT 03/00 A2998 RMK A01 T00260003  RH  084%=      5-min Rain = 0
KPD1 151142Z 23015KT 03/00 A2998 RMK A01 T00260002  RH  084%=      5-min Rain = 0
KPD1 151143Z 22013KT 03/00 A2998 RMK A01 T00260003  RH  085%=      5-min Rain = 0
KPD1 151144Z 23013G18KT 03/00 A2998 RMK A01 T00260003  RH  085%=      5-min Rain = 0
KPD1 151145Z 22012G17KT 03/00 A2998 RMK A01 T00260003  RH  085%=      5-min Rain = 0
KPD1 151146Z 23014G20KT 03/00 A2998 RMK A01 T00260002  RH  085%=      5-min Rain = 0
KPD1 151147Z 22011G16KT 03/00 A2998 RMK A01 T00260002  RH  085%=      5-min Rain = 0
KPD1 151148Z 22010G15KT 03/00 A2998 RMK A01 T00260002  RH  085%=      5-min Rain = 0
KPD1 151149Z 22011G16KT 03/00 A2998 RMK A01 T00250002  RH  085%=      5-min Rain = 0
KPD1 151150Z 22010KT 03/00 A2998 RMK A01 T00250002  RH  085%=      5-min Rain = 0
KPD1 151151Z 22013KT 02/00 A2998 RMK A01 T00240002  RH  085%=      5-min Rain = 0
KPD1 151152Z 22012KT 02/00 A2998 RMK A01 T00240002  RH  085%=      5-min Rain = 0
KPD1 151153Z 22010G15KT 02/00 A2998 RMK A01 T00240002  RH  085%=      5-min Rain = 0
KPD1 151154Z 23010G15KT 02/00 A2998 RMK A01 T00240002  RH  085%=      5-min Rain = 0
KPD1 151155Z 22013G18KT 02/00 A2999 RMK A01 T00240002  RH  085%=      5-min Rain = 0
KPD1 151156Z 23011G16KT 02/00 A2999 RMK A01 T00240002  RH  085%=      5-min Rain = 0
KPD1 151157Z 22009G14KT 02/00 A2999 RMK A01 T00240002  RH  085%=      5-min Rain = 0
KPD1 151158Z 22010KT 02/00 A2999 RMK A01 T00240002  RH  085%=      5-min Rain = 0
KPD1 151159Z 22012KT 02/00 A2999 RMK A01 T00240002  RH  085%=      5-min Rain = 0
KPD1 151200Z 22009KT 02/00 A2999 RMK A01 T00240002  RH  085%=      5-min Rain = 0
KPD1 151201Z 23010KT 02/00 A2999 RMK A01 T00240002  RH  085%=      5-min Rain = 0
KPD1 151202Z 22009G15KT 02/00 A2999 RMK A01 T00240002  RH  085%=      5-min Rain = 0
KPD1 151203Z 22008KT 02/00 A30 RMK A01 T00240002  RH  085%=      5-min Rain = 0
KPD1 151204Z 23010KT 02/00 A30 RMK A01 T00240002  RH  085%=      5-min Rain = 0
KPD1 151205Z 21010KT 02/00 A30 RMK A01 T00240002  RH  085%=      5-min Rain = 0
KPD1 151206Z 22009G14KT 02/00 A30 RMK A01 T00240001  RH  085%=      5-min Rain = 0
KPD1 151207Z 22008KT 02/00 A30 RMK A01 T00240001  RH  085%=      5-min Rain = 0
KPD1 151208Z 23006KT 02/00 A30 RMK A01 T00240002  RH  085%=      5-min Rain = 0
KPD1 151209Z 25005KT 02/00 A30 RMK A01 T00240001  RH  085%=      5-min Rain = 0
KPD1 151210Z 25002KT 02/00 A30 RMK A01 T00240001  RH  085%=      5-min Rain = 0
KPD1 151211Z 26002KT 02/00 A3001 RMK A01 T00230001  RH  085%=      5-min Rain = 0
KPD1 151212Z 19001KT 02/00 A3001 RMK A01 T00230001  RH  085%=      5-min Rain = 0
KPD1 151213Z 26003KT 02/00 A3001 RMK A01 T00230001  RH  085%=      5-min Rain = 0
KPD1 151214Z 27003KT 02/00 A3001 RMK A01 T00230001  RH  085%=      5-min Rain = 0
KPD1 151215Z 28003KT 02/00 A3001 RMK A01 T00230001  RH  085%=      5-min Rain = 0
KPD1 151216Z 28003KT 02/00 A3001 RMK A01 T00230001  RH  085%=      5-min Rain = 0
KPD1 151217Z 31003KT 02/00 A3001 RMK A01 T00230001  RH  085%=      5-min Rain = 0
KPD1 151218Z 35003KT 02/00 A3001 RMK A01 T00230001  RH  086%=      5-min Rain = 0
KPD1 151219Z 01002KT 02/00 A3002 RMK A01 T00230001  RH  086%=      5-min Rain = 0
KPD1 151220Z 36003KT 02/00 A3002 RMK A01 T00220001  RH  086%=      5-min Rain = 0
KPD1 151221Z 34002KT 02/00 A3002 RMK A01 T002200-0  RH  086%=      5-min Rain = 0
KPD1 151222Z 32002KT 02/00 A3002 RMK A01 T00210000  RH  086%=      5-min Rain = 0
KPD1 151223Z 26003KT 02/00 A3001 RMK A01 T002100-0  RH  086%=      5-min Rain = 0
KPD1 151224Z 25005KT 02/00 A3001 RMK A01 T002100-0  RH  086%=      5-min Rain = 0
KPD1 151225Z 25005KT 02/00 A3001 RMK A01 T002000-0  RH  086%=      5-min Rain = 0
KPD1 151226Z 24008KT 02/00 A3001 RMK A01 T002100-0  RH  086%=      5-min Rain = 0
KPD1 151227Z 24007KT 02/00 A3001 RMK A01 T00210000  RH  086%=      5-min Rain = 0
KPD1 151228Z 24008KT 02/00 A3001 RMK A01 T00210000  RH  086%=      5-min Rain = 0
KPD1 151229Z 25007KT 02/00 A3001 RMK A01 T002100-0  RH  086%=      5-min Rain = 0
KPD1 151230Z 25007KT 02/00 A3001 RMK A01 T002100-0  RH  086%=      5-min Rain = 0
KPD1 151231Z 24009KT 02/00 A3001 RMK A01 T002100-0  RH  086%=      5-min Rain = 0
KPD1 151232Z 25009KT 02/00 A3001 RMK A01 T002100-0  RH  086%=      5-min Rain = 0
KPD1 151233Z 24007KT 02/00 A3002 RMK A01 T00210000  RH  086%=      5-min Rain = 0
KPD1 151234Z 23008KT 02/00 A3001 RMK A01 T002100-0  RH  086%=      5-min Rain = 0
KPD1 151235Z 23009KT 02/M00 A3001 RMK A01 T00201001  RH  086%=      5-min Rain = 0
KPD1 151236Z 23010KT 02/M00 A3001 RMK A01 T00201001  RH  086%=      5-min Rain = 0
KPD1 151237Z 23007KT 02/00 A3002 RMK A01 T002000-0  RH  086%=      5-min Rain = 0
KPD1 151238Z 24005KT 02/00 A3002 RMK A01 T00210000  RH  086%=      5-min Rain = 0
KPD1 151239Z 24003KT 02/00 A3002 RMK A01 T002100-0  RH  086%=      5-min Rain = 0
KPD1 151240Z 25004KT 02/00 A3002 RMK A01 T002100-0  RH  086%=      5-min Rain = 0
KPD1 151241Z 26003KT 02/00 A3002 RMK A01 T002100-0  RH  086%=      5-min Rain = 0
KPD1 151242Z 28003KT 02/00 A3002 RMK A01 T002100-0  RH  086%=      5-min Rain = 0
KPD1 151243Z 27002KT 02/M00 A3002 RMK A01 T00211001  RH  086%=      5-min Rain = 0
KPD1 151244Z 27004KT 02/M00 A3002 RMK A01 T00201001  RH  086%=      5-min Rain = 0
KPD1 151245Z 27003KT 02/M00 A3002 RMK A01 T00201001  RH  086%=      5-min Rain = 0
KPD1 151246Z 25004KT 02/M00 A3002 RMK A01 T00201001  RH  086%=      5-min Rain = 0
KPD1 151247Z 26004KT 02/M00 A3002 RMK A01 T00201001  RH  086%=      5-min Rain = 0
KPD1 151248Z 25005KT 02/M00 A3002 RMK A01 T00201002  RH  086%=      5-min Rain = 0
KPD1 151249Z 23005KT 02/M00 A3002 RMK A01 T00191002  RH  086%=      5-min Rain = 0
KPD1 151250Z 24006KT 02/M00 A3002 RMK A01 T00191002  RH  086%=      5-min Rain = 0
KPD1 151251Z 24007KT 02/M00 A3002 RMK A01 T00191001  RH  086%=      5-min Rain = 0
KPD1 151252Z 24009KT 02/M00 A3002 RMK A01 T00191001  RH  086%=      5-min Rain = 0
KPD1 151253Z 25008KT 02/M00 A3002 RMK A01 T00191001  RH  086%=      5-min Rain = 0
KPD1 151254Z 25006KT 02/M00 A3002 RMK A01 T00201001  RH  086%=      5-min Rain = 0
KPD1 151255Z 27006KT 02/M00 A3002 RMK A01 T00201001  RH  086%=      5-min Rain = 0
KPD1 151256Z 30005KT 02/M00 A3003 RMK A01 T00201001  RH  086%=      5-min Rain = 0
KPD1 151257Z 35006KT 02/M00 A3003 RMK A01 T00201001  RH  086%=      5-min Rain = 0
KPD1 151258Z 35007KT 02/M00 A3003 RMK A01 T00201002  RH  086%=      5-min Rain = 0
KPD1 151259Z 35005KT 02/M00 A3003 RMK A01 T00191002  RH  086%=      5-min Rain = 0
KPD1 151300Z 34003KT 02/M00 A3003 RMK A01 T00181002  RH  086%=      5-min Rain = 0
KPD1 151301Z 32002KT 02/M00 A3002 RMK A01 T00181002  RH  087%=      5-min Rain = 0
KPD1 151302Z 29002KT 02/M00 A3002 RMK A01 T00181002  RH  087%=      5-min Rain = 0
KPD1 151303Z 31001KT 02/M00 A3002 RMK A01 T00181002  RH  087%=      5-min Rain = 0
KPD1 151304Z 27003KT 02/M00 A3002 RMK A01 T00181002  RH  087%=      5-min Rain = 0
KPD1 151305Z 26004KT 02/M00 A3002 RMK A01 T00181001  RH  087%=      5-min Rain = 0
KPD1 151306Z 25004KT 02/M00 A3002 RMK A01 T00181001  RH  087%=      5-min Rain = 0
KPD1 151307Z 26005KT 02/M00 A3002 RMK A01 T00181001  RH  087%=      5-min Rain = 0
KPD1 151308Z 25005KT 02/M00 A3002 RMK A01 T00181001  RH  087%=      5-min Rain = 0
KPD1 151309Z 25005KT 02/M00 A3002 RMK A01 T00181001  RH  087%=      5-min Rain = 0
KPD1 151310Z 24006KT 02/00 A3002 RMK A01 T001900-0  RH  087%=      5-min Rain = 0
KPD1 151311Z 25005KT 02/00 A3002 RMK A01 T001900-0  RH  087%=      5-min Rain = 0
KPD1 151312Z 25006KT 02/00 A3002 RMK A01 T00200000  RH  087%=      5-min Rain = 0
KPD1 151313Z 24007KT 02/00 A3002 RMK A01 T00210001  RH  087%=      5-min Rain = 0
KPD1 151314Z 24007KT 02/00 A3002 RMK A01 T00210001  RH  086%=      5-min Rain = 0
KPD1 151315Z 24007KT 02/00 A3002 RMK A01 T00220002  RH  086%=      5-min Rain = 0
KPD1 151316Z 24006KT 02/00 A3002 RMK A01 T00230002  RH  086%=      5-min Rain = 0
KPD1 151317Z 25006KT 02/00 A3002 RMK A01 T00230002  RH  086%=      5-min Rain = 0
KPD1 151318Z 26006KT 02/00 A3002 RMK A01 T00240002  RH  085%=      5-min Rain = 0
KPD1 151319Z 30004KT 03/00 A3003 RMK A01 T00250003  RH  085%=      5-min Rain = 0
KPD1 151320Z 32005KT 03/00 A3003 RMK A01 T00260002  RH  085%=      5-min Rain = 0
KPD1 151321Z 00005KT 03/00 A3003 RMK A01 T00260002  RH  084%=      5-min Rain = 0
KPD1 151322Z 36003KT 03/00 A3003 RMK A01 T00250001  RH  084%=      5-min Rain = 0
KPD1 151323Z 36004KT 03/00 A3003 RMK A01 T00250001  RH  084%=      5-min Rain = 0
KPD1 151324Z 34004KT 03/00 A3003 RMK A01 T00250001  RH  084%=      5-min Rain = 0
KPD1 151325Z 30003KT 02/00 A3003 RMK A01 T00240001  RH  085%=      5-min Rain = 0
KPD1 151326Z 26004KT 02/00 A3003 RMK A01 T00240001  RH  085%=      5-min Rain = 0
KPD1 151327Z 27005KT 02/00 A3003 RMK A01 T00240001  RH  085%=      5-min Rain = 0
KPD1 151328Z 26006KT 02/00 A3003 RMK A01 T00240001  RH  085%=      5-min Rain = 0
KPD1 151329Z 26006KT 03/00 A3003 RMK A01 T00250003  RH  085%=      5-min Rain = 0
KPD1 151330Z 27006KT 03/00 A3003 RMK A01 T00270004  RH  085%=      5-min Rain = 0
KPD1 151331Z 29004KT 03/00 A3003 RMK A01 T00280004  RH  084%=      5-min Rain = 0
KPD1 151332Z 30006KT 03/00 A3003 RMK A01 T00280003  RH  083%=      5-min Rain = 0
KPD1 151333Z 31008KT 03/00 A3003 RMK A01 T00280003  RH  083%=      5-min Rain = 0
KPD1 151334Z 30007KT 03/00 A3003 RMK A01 T00280002  RH  083%=      5-min Rain = 0
KPD1 151335Z 30005KT 03/00 A3003 RMK A01 T00280002  RH  083%=      5-min Rain = 0
KPD1 151336Z 29006KT 03/00 A3003 RMK A01 T00280002  RH  083%=      5-min Rain = 0
KPD1 151337Z 28006KT 03/00 A3003 RMK A01 T00280001  RH  083%=      5-min Rain = 0
KPD1 151338Z 28006KT 03/00 A3003 RMK A01 T00270000  RH  083%=      5-min Rain = 0
KPD1 151339Z 29006KT 03/00 A3003 RMK A01 T00260000  RH  083%=      5-min Rain = 0
KPD1 151340Z 29006KT 03/00 A3003 RMK A01 T002600-0  RH  083%=      5-min Rain = 0
KPD1 151341Z 28006KT 03/M00 A3003 RMK A01 T00251001  RH  083%=      5-min Rain = 0
KPD1 151342Z 28006KT 02/M00 A3003 RMK A01 T00241001  RH  083%=      5-min Rain = 0
KPD1 151343Z 28007KT 02/M00 A3003 RMK A01 T00241001  RH  084%=      5-min Rain = 0
KPD1 151344Z 27008KT 02/M00 A3003 RMK A01 T00231001  RH  084%=      5-min Rain = 0
KPD1 151345Z 26007KT 02/M00 A3003 RMK A01 T00231001  RH  084%=      5-min Rain = 0
KPD1 151346Z 26008KT 02/M00 A3002 RMK A01 T00241001  RH  084%=      5-min Rain = 0
KPD1 151347Z 26009KT 02/M00 A3002 RMK A01 T00231001  RH  084%=      5-min Rain = 0
KPD1 151348Z 26009KT 02/M00 A3003 RMK A01 T00231001  RH  084%=      5-min Rain = 0
KPD1 151349Z 27009KT 02/M00 A3003 RMK A01 T00231001  RH  084%=      5-min Rain = 0
KPD1 151350Z 28009KT 02/M00 A3003 RMK A01 T00241001  RH  084%=      5-min Rain = 0
KPD1 151351Z 28009KT 02/M00 A3003 RMK A01 T00231001  RH  084%=      5-min Rain = 0
KPD1 151352Z 29010KT 02/M00 A3003 RMK A01 T00231001  RH  084%=      5-min Rain = 0
KPD1 151353Z 29009KT 02/M00 A3003 RMK A01 T00231001  RH  084%=      5-min Rain = 0
KPD1 151354Z 29006KT 02/M00 A3003 RMK A01 T00241001  RH  084%=      5-min Rain = 0
KPD1 151355Z 28007G13KT 02/M00 A3003 RMK A01 T00231002  RH  084%=      5-min Rain = 0
KPD1 151356Z 28008KT 02/M00 A3003 RMK A01 T00231002  RH  084%=      5-min Rain = 0
KPD1 151357Z 28007KT 02/M00 A3003 RMK A01 T00231001  RH  084%=      5-min Rain = 0
KPD1 151358Z 28007KT 02/M00 A3003 RMK A01 T00221002  RH  084%=      5-min Rain = 0
KPD1 151359Z 28009KT 02/M00 A3003 RMK A01 T00221002  RH  084%=      5-min Rain = 0
KPD1 151400Z 28009KT 02/M00 A3003 RMK A01 T00231002  RH  084%=      5-min Rain = 0
KPD1 151401Z 28007KT 02/M00 A3003 RMK A01 T00221002  RH  084%=      5-min Rain = 0
KPD1 151402Z 29008KT 02/M00 A3003 RMK A01 T00231002  RH  084%=      5-min Rain = 0
KPD1 151403Z 30007KT 02/M00 A3004 RMK A01 T00231002  RH  084%=      5-min Rain = 0
KPD1 151404Z 31007KT 02/M00 A3004 RMK A01 T00231002  RH  084%=      5-min Rain = 0
KPD1 151405Z 32006KT 02/M00 A3004 RMK A01 T00231002  RH  083%=      5-min Rain = 0
KPD1 151406Z 32006KT 02/M00 A3004 RMK A01 T00231002  RH  083%=      5-min Rain = 0
KPD1 151407Z 33006KT 02/M00 A3004 RMK A01 T00231002  RH  083%=      5-min Rain = 0
KPD1 151408Z 31007KT 02/M00 A3004 RMK A01 T00231002  RH  083%=      5-min Rain = 0
KPD1 151409Z 31006KT 02/M00 A3004 RMK A01 T00231002  RH  083%=      5-min Rain = 0
KPD1 151410Z 29006KT 02/M00 A3004 RMK A01 T00231003  RH  083%=      5-min Rain = 0
KPD1 151411Z 29008KT 02/M00 A3004 RMK A01 T00231002  RH  083%=      5-min Rain = 0
KPD1 151412Z 29008KT 02/M00 A3004 RMK A01 T00231003  RH  083%=      5-min Rain = 0
KPD1 151413Z 29008KT 02/M00 A3004 RMK A01 T00231003  RH  083%=      5-min Rain = 0
KPD1 151414Z 30010KT 02/M00 A3004 RMK A01 T00231002  RH  083%=      5-min Rain = 0
KPD1 151415Z 30009KT 02/M00 A3004 RMK A01 T00241002  RH  083%=      5-min Rain = 0
KPD1 151416Z 29009KT 02/M00 A3004 RMK A01 T00241001  RH  083%=      5-min Rain = 0
KPD1 151417Z 29010KT 02/M00 A3004 RMK A01 T00241001  RH  083%=      5-min Rain = 0
KPD1 151418Z 29009KT 03/M00 A3004 RMK A01 T00251001  RH  083%=      5-min Rain = 0
KPD1 151419Z 29010KT 03/M00 A3004 RMK A01 T00261001  RH  083%=      5-min Rain = 0
KPD1 151420Z 29009KT 03/M00 A3004 RMK A01 T00261001  RH  083%=      5-min Rain = 0
KPD1 151421Z 29010KT 03/00 A3004 RMK A01 T002700-0  RH  082%=      5-min Rain = 0
KPD1 151422Z 29011KT 03/00 A3004 RMK A01 T002700-0  RH  082%=      5-min Rain = 0
KPD1 151423Z 29012KT 03/00 A3004 RMK A01 T00280000  RH  082%=      5-min Rain = 0
KPD1 151424Z 30011KT 03/00 A3004 RMK A01 T00290000  RH  082%=      5-min Rain = 0
KPD1 151425Z 29012KT 03/00 A3004 RMK A01 T00290001  RH  082%=      5-min Rain = 0
KPD1 151426Z 30011G16KT 03/00 A3004 RMK A01 T00300001  RH  081%=      5-min Rain = 0
KPD1 151427Z 30012G17KT 03/00 A3004 RMK A01 T00300001  RH  081%=      5-min Rain = 0
KPD1 151428Z 30012KT 03/00 A3004 RMK A01 T00300001  RH  081%=      5-min Rain = 0
KPD1 151429Z 30011G17KT 03/00 A3004 RMK A01 T00310001  RH  081%=      5-min Rain = 0
KPD1 151430Z 30012KT 03/00 A3005 RMK A01 T00310001  RH  081%=      5-min Rain = 0
KPD1 151431Z 30011KT 03/00 A3005 RMK A01 T00310001  RH  081%=      5-min Rain = 0
KPD1 151432Z 31010KT 03/00 A3005 RMK A01 T00320001  RH  081%=      5-min Rain = 0
KPD1 151433Z 31010KT 03/00 A3005 RMK A01 T00320001  RH  080%=      5-min Rain = 0
KPD1 151434Z 30011KT 03/00 A3005 RMK A01 T00320002  RH  080%=      5-min Rain = 0
KPD1 151435Z 30011KT 03/00 A3005 RMK A01 T00330002  RH  080%=      5-min Rain = 0
KPD1 151436Z 32010KT 03/00 A3005 RMK A01 T00330002  RH  080%=      5-min Rain = 0
KPD1 151437Z 31011KT 03/00 A3005 RMK A01 T00340003  RH  080%=      5-min Rain = 0
KPD1 151438Z 30012KT 04/00 A3005 RMK A01 T00350003  RH  080%=      5-min Rain = 0
KPD1 151439Z 31010KT 04/00 A3005 RMK A01 T00350003  RH  080%=      5-min Rain = 0
KPD1 151440Z 30012KT 04/00 A3005 RMK A01 T00360003  RH  079%=      5-min Rain = 0
KPD1 151441Z 30012G17KT 04/00 A3005 RMK A01 T00360003  RH  079%=      5-min Rain = 0
KPD1 151442Z 30010KT 04/00 A3005 RMK A01 T00360003  RH  079%=      5-min Rain = 0
KPD1 151443Z 30012KT 04/00 A3005 RMK A01 T00370004  RH  079%=      5-min Rain = 0
KPD1 151444Z 30011KT 04/00 A3005 RMK A01 T00370004  RH  079%=      5-min Rain = 0
KPD1 151445Z 30008KT 04/00 A3005 RMK A01 T00370004  RH  079%=      5-min Rain = 0
KPD1 151446Z 30011KT 04/00 A3005 RMK A01 T00370004  RH  079%=      5-min Rain = 0
KPD1 151447Z 30009KT 04/00 A3005 RMK A01 T00380004  RH  079%=      5-min Rain = 0
KPD1 151448Z 30011KT 04/01 A3005 RMK A01 T00380005  RH  079%=      5-min Rain = 0
KPD1 151449Z 30011KT 04/00 A3005 RMK A01 T00390004  RH  078%=      5-min Rain = 0
KPD1 151450Z 30012KT 04/00 A3005 RMK A01 T00390004  RH  078%=      5-min Rain = 0
KPD1 151451Z 30011KT 04/00 A3005 RMK A01 T00400004  RH  078%=      5-min Rain = 0
KPD1 151452Z 30011KT 04/00 A3005 RMK A01 T00400004  RH  077%=      5-min Rain = 0
KPD1 151453Z 29011KT 04/00 A3005 RMK A01 T00400004  RH  077%=      5-min Rain = 0
KPD1 151454Z 29010KT 04/01 A3005 RMK A01 T00410005  RH  077%=      5-min Rain = 0
KPD1 151455Z 29010G15KT 04/01 A3006 RMK A01 T00420005  RH  077%=      5-min Rain = 0
KPD1 151456Z 30011KT 04/01 A3006 RMK A01 T00430006  RH  077%=      5-min Rain = 0
KPD1 151457Z 30012KT 04/01 A3006 RMK A01 T00430005  RH  076%=      5-min Rain = 0
KPD1 151458Z 29010KT 04/01 A3006 RMK A01 T00430005  RH  076%=      5-min Rain = 0
KPD1 151459Z 29011G16KT 04/01 A3006 RMK A01 T00440006  RH  076%=      5-min Rain = 0
KPD1 151500Z 29013KT 05/01 A3006 RMK A01 T00450005  RH  076%=      5-min Rain = 0
KPD1 151501Z 29011KT 05/01 A3006 RMK A01 T00450005  RH  075%=      5-min Rain = 0
KPD1 151502Z 29009KT 05/01 A3006 RMK A01 T00460006  RH  075%=      5-min Rain = 0
KPD1 151503Z 29008KT 05/01 A3006 RMK A01 T00470008  RH  076%=      5-min Rain = 0
KPD1 151504Z 30009G14KT 05/01 A3006 RMK A01 T00490009  RH  075%=      5-min Rain = 0
KPD1 151505Z 29010KT 05/01 A3006 RMK A01 T00490008  RH  075%=      5-min Rain = 0
KPD1 151506Z 29011KT 05/01 A3006 RMK A01 T00500008  RH  074%=      5-min Rain = 0
KPD1 151507Z 29010KT 05/01 A3006 RMK A01 T00500007  RH  074%=      5-min Rain = 0
KPD1 151508Z 29009G15KT 05/01 A3006 RMK A01 T00510008  RH  074%=      5-min Rain = 0
KPD1 151509Z 30010KT 05/01 A3006 RMK A01 T00520009  RH  074%=      5-min Rain = 0
KPD1 151510Z 29011KT 05/01 A3006 RMK A01 T00520008  RH  073%=      5-min Rain = 0
KPD1 151511Z 29010KT 05/01 A3006 RMK A01 T00530008  RH  073%=      5-min Rain = 0
KPD1 151512Z 29009KT 05/01 A3006 RMK A01 T00530008  RH  073%=      5-min Rain = 0
KPD1 151513Z 30008KT 05/01 A3006 RMK A01 T00530008  RH  073%=      5-min Rain = 0
KPD1 151514Z 30009KT 05/01 A3006 RMK A01 T00540009  RH  073%=      5-min Rain = 0
KPD1 151515Z 30011KT 06/01 A3006 RMK A01 T00550009  RH  072%=      5-min Rain = 0
KPD1 151516Z 30010KT 06/01 A3006 RMK A01 T00550008  RH  072%=      5-min Rain = 0
KPD1 151517Z 31008KT 06/01 A3007 RMK A01 T00550009  RH  072%=      5-min Rain = 0
KPD1 151518Z 31009KT 06/01 A3007 RMK A01 T00570012  RH  073%=      5-min Rain = 0
KPD1 151519Z 31010KT 06/01 A3007 RMK A01 T00580010  RH  072%=      5-min Rain = 0
KPD1 151520Z 31012KT 06/01 A3007 RMK A01 T00580009  RH  071%=      5-min Rain = 0
KPD1 151521Z 31012KT 06/01 A3007 RMK A01 T00580009  RH  071%=      5-min Rain = 0
KPD1 151522Z 31009KT 06/01 A3007 RMK A01 T00580010  RH  071%=      5-min Rain = 0
KPD1 151523Z 31009KT 06/01 A3007 RMK A01 T00590012  RH  071%=      5-min Rain = 0
KPD1 151524Z 31009G14KT 06/01 A3006 RMK A01 T00600012  RH  071%=      5-min Rain = 0
KPD1 151525Z 31011KT 06/01 A3006 RMK A01 T00610012  RH  071%=      5-min Rain = 0
KPD1 151526Z 31009KT 06/01 A3006 RMK A01 T00610011  RH  070%=      5-min Rain = 0
KPD1 151527Z 32010KT 06/01 A3006 RMK A01 T00620013  RH  070%=      5-min Rain = 0
KPD1 151528Z 31009KT 06/01 A3006 RMK A01 T00630013  RH  070%=      5-min Rain = 0
KPD1 151529Z 32008KT 06/01 A3006 RMK A01 T00640013  RH  070%=      5-min Rain = 0
KPD1 151530Z 33009KT 07/01 A3006 RMK A01 T00660013  RH  069%=      5-min Rain = 0
KPD1 151531Z 33008KT 07/01 A3006 RMK A01 T00680011  RH  067%=      5-min Rain = 0
KPD1 151532Z 33007KT 07/01 A3006 RMK A01 T00690011  RH  066%=      5-min Rain = 0
KPD1 151533Z 34011KT 07/01 A3007 RMK A01 T00710010  RH  065%=      5-min Rain = 0
KPD1 151534Z 34009KT 07/01 A3006 RMK A01 T00720008  RH  064%=      5-min Rain = 0
KPD1 151535Z 33010KT 07/01 A3006 RMK A01 T00720007  RH  063%=      5-min Rain = 0
KPD1 151536Z 33011KT 07/01 A3006 RMK A01 T00730005  RH  062%=      5-min Rain = 0
KPD1 151537Z 34009KT 07/01 A3007 RMK A01 T00730005  RH  062%=      5-min Rain = 0
KPD1 151538Z 35007KT 07/01 A3007 RMK A01 T00740007  RH  062%=      5-min Rain = 0
KPD1 151539Z 33007KT 08/01 A3007 RMK A01 T00760008  RH  062%=      5-min Rain = 0
KPD1 151540Z 35006KT 08/01 A3007 RMK A01 T00760006  RH  061%=      5-min Rain = 0
KPD1 151541Z 35006KT 08/00 A3007 RMK A01 T00770004  RH  060%=      5-min Rain = 0
KPD1 151542Z 34009KT 08/00 A3007 RMK A01 T00790002  RH  058%=      5-min Rain = 0
KPD1 151543Z 36006KT 08/M00 A3007 RMK A01 T00791002  RH  057%=      5-min Rain = 0
KPD1 151544Z 34007KT 08/M00 A3007 RMK A01 T00801002  RH  056%=      5-min Rain = 0
KPD1 151545Z 34008KT 08/M00 A3007 RMK A01 T00811004  RH  055%=      5-min Rain = 0
KPD1 151546Z 34007G12KT 08/M01 A3007 RMK A01 T00811006  RH  054%=      5-min Rain = 0
KPD1 151547Z 34009KT 08/M01 A3007 RMK A01 T00821008  RH  053%=      5-min Rain = 0
KPD1 151548Z 34008KT 08/M01 A3007 RMK A01 T00821010  RH  052%=      5-min Rain = 0
KPD1 151549Z 35009KT 08/M01 A3007 RMK A01 T00831010  RH  052%=      5-min Rain = 0
KPD1 151550Z 36010KT 08/M01 A3007 RMK A01 T00831011  RH  052%=      5-min Rain = 0
KPD1 151551Z 36010KT 08/M01 A3007 RMK A01 T00831012  RH  051%=      5-min Rain = 0
KPD1 151552Z 34009KT 08/M01 A3007 RMK A01 T00831013  RH  051%=      5-min Rain = 0
KPD1 151553Z 34011KT 08/M01 A3007 RMK A01 T00841012  RH  051%=      5-min Rain = 0
KPD1 151554Z 35011KT 09/M01 A3007 RMK A01 T00851012  RH  050%=      5-min Rain = 0
KPD1 151555Z 34011KT 09/M01 A3007 RMK A01 T00851014  RH  050%=      5-min Rain = 0
KPD1 151556Z 34010KT 09/M02 A3007 RMK A01 T00851015  RH  049%=      5-min Rain = 0
KPD1 151557Z 33010KT 09/M02 A3007 RMK A01 T00851016  RH  049%=      5-min Rain = 0
KPD1 151558Z 35010KT 09/M02 A3007 RMK A01 T00851017  RH  049%=      5-min Rain = 0
KPD1 151559Z 34010KT 09/M02 A3007 RMK A01 T00851018  RH  048%=      5-min Rain = 0
KPD1 151600Z 34008KT 09/M02 A3007 RMK A01 T00851017  RH  048%=      5-min Rain = 0
KPD1 151601Z 36009KT 09/M02 A3007 RMK A01 T00861016  RH  048%=      5-min Rain = 0
KPD1 151602Z 35008KT 09/M02 A3007 RMK A01 T00861017  RH  048%=      5-min Rain = 0
KPD1 151603Z 34010KT 09/M02 A3007 RMK A01 T00861018  RH  048%=      5-min Rain = 0
KPD1 151604Z 34010KT 09/M02 A3007 RMK A01 T00871017  RH  048%=      5-min Rain = 0
KPD1 151605Z 34009KT 09/M02 A3007 RMK A01 T00881017  RH  048%=      5-min Rain = 0
KPD1 151606Z 34008KT 09/M02 A3007 RMK A01 T00891016  RH  048%=      5-min Rain = 0
KPD1 151607Z 35009KT 09/M02 A3007 RMK A01 T00891015  RH  048%=      5-min Rain = 0
KPD1 151608Z 00009KT 09/M02 A3007 RMK A01 T00911017  RH  047%=      5-min Rain = 0
KPD1 151609Z 35008KT 09/M02 A3007 RMK A01 T00901017  RH  047%=      5-min Rain = 0
KPD1 151610Z 34009KT 09/M02 A3007 RMK A01 T00911017  RH  047%=      5-min Rain = 0
KPD1 151611Z 35009KT 09/M02 A3007 RMK A01 T00921017  RH  046%=      5-min Rain = 0
KPD1 151612Z 35009KT 09/M02 A3007 RMK A01 T00931019  RH  045%=      5-min Rain = 0
KPD1 151613Z 35009KT 09/M02 A3007 RMK A01 T00931020  RH  045%=      5-min Rain = 0
KPD1 151614Z 35010G15KT 09/M02 A3007 RMK A01 T00931022  RH  044%=      5-min Rain = 0
KPD1 151615Z 34011G17KT 09/M02 A3007 RMK A01 T00921023  RH  045%=      5-min Rain = 0
KPD1 151616Z 34013KT 09/M02 A3007 RMK A01 T00921023  RH  044%=      5-min Rain = 0
KPD1 151617Z 36013KT 09/M03 A3007 RMK A01 T00911025  RH  044%=      5-min Rain = 0
KPD1 151618Z 35010G15KT 09/M03 A3007 RMK A01 T00911025  RH  044%=      5-min Rain = 0
KPD1 151619Z 34012KT 09/M02 A3007 RMK A01 T00911024  RH  044%=      5-min Rain = 0
KPD1 151620Z 35010KT 09/M03 A3007 RMK A01 T00911025  RH  044%=      5-min Rain = 0
KPD1 151621Z 35012KT 09/M02 A3007 RMK A01 T00921023  RH  045%=      5-min Rain = 0
KPD1 151622Z 01010KT 09/M02 A3007 RMK A01 T00921024  RH  044%=      5-min Rain = 0
KPD1 151623Z 36008KT 09/M02 A3007 RMK A01 T00921023  RH  044%=      5-min Rain = 0
KPD1 151624Z 34013KT 09/M02 A3007 RMK A01 T00941022  RH  044%=      5-min Rain = 0
KPD1 151625Z 36010KT 09/M03 A3007 RMK A01 T00941026  RH  043%=      5-min Rain = 0
KPD1 151626Z 00011KT 09/M02 A3007 RMK A01 T00931024  RH  044%=      5-min Rain = 0
KPD1 151627Z 36011KT 09/M02 A3007 RMK A01 T00941024  RH  043%=      5-min Rain = 0
KPD1 151628Z 36012KT 10/M03 A3007 RMK A01 T00951025  RH  043%=      5-min Rain = 0
KPD1 151629Z 36011KT 10/M02 A3007 RMK A01 T00951024  RH  043%=      5-min Rain = 0
KPD1 151630Z 00009KT 10/M02 A3007 RMK A01 T00961024  RH  043%=      5-min Rain = 0
KPD1 151631Z 36012KT 10/M03 A3007 RMK A01 T00961026  RH  042%=      5-min Rain = 0
KPD1 151632Z 35008KT 10/M02 A3007 RMK A01 T00961024  RH  043%=      5-min Rain = 0
KPD1 151633Z 36012KT 10/M03 A3007 RMK A01 T00971026  RH  042%=      5-min Rain = 0
KPD1 151634Z 00012KT 10/M03 A3007 RMK A01 T00961027  RH  042%=      5-min Rain = 0
KPD1 151635Z 00012KT 10/M03 A3007 RMK A01 T00951027  RH  042%=      5-min Rain = 0
KPD1 151636Z 35010KT 10/M03 A3007 RMK A01 T00951026  RH  043%=      5-min Rain = 0
KPD1 151637Z 36008KT 10/M02 A3007 RMK A01 T00961024  RH  043%=      5-min Rain = 0
KPD1 151638Z 35011KT 10/M02 A3007 RMK A01 T00971022  RH  043%=      5-min Rain = 0
KPD1 151639Z 36009G14KT 10/M02 A3007 RMK A01 T00981023  RH  043%=      5-min Rain = 0
KPD1 151640Z 36011KT 10/M02 A3007 RMK A01 T00991022  RH  043%=      5-min Rain = 0
KPD1 151641Z 35011G17KT 10/M02 A3007 RMK A01 T00991022  RH  043%=      5-min Rain = 0
KPD1 151642Z 34012G17KT 10/M02 A3007 RMK A01 T00991024  RH  042%=      5-min Rain = 0
KPD1 151643Z 35014KT 10/M02 A3007 RMK A01 T00981024  RH  042%=      5-min Rain = 0
KPD1 151644Z 35011KT 10/M03 A3007 RMK A01 T00981026  RH  042%=      5-min Rain = 0
KPD1 151645Z 35008G13KT 10/M03 A3007 RMK A01 T00961029  RH  041%=      5-min Rain = 0
KPD1 151646Z 36012G17KT 10/M03 A3008 RMK A01 T00951028  RH  042%=      5-min Rain = 0
KPD1 151647Z 00010G16KT 09/M03 A3008 RMK A01 T00941029  RH  042%=      5-min Rain = 0
KPD1 151648Z 36009KT 09/M03 A3008 RMK A01 T00931027  RH  043%=      5-min Rain = 0
KPD1 151649Z 36012KT 09/M03 A3008 RMK A01 T00931026  RH  043%=      5-min Rain = 0
KPD1 151650Z 00011KT 09/M03 A3008 RMK A01 T00931026  RH  043%=      5-min Rain = 0
KPD1 151651Z 35013G18KT 09/M03 A3008 RMK A01 T00931026  RH  043%=      5-min Rain = 0
KPD1 151652Z 36009KT 09/M03 A3008 RMK A01 T00931027  RH  043%=      5-min Rain = 0
KPD1 151653Z 35012G17KT 09/M03 A3008 RMK A01 T00931025  RH  043%=      5-min Rain = 0
KPD1 151654Z 00013G18KT 09/M03 A3008 RMK A01 T00941026  RH  043%=      5-min Rain = 0
KPD1 151655Z 00012KT 09/M03 A3008 RMK A01 T00931027  RH  043%=      5-min Rain = 0
KPD1 151656Z 34011G16KT 09/M03 A3008 RMK A01 T00931027  RH  043%=      5-min Rain = 0
KPD1 151657Z 35008KT 09/M03 A3008 RMK A01 T00931026  RH  043%=      5-min Rain = 0
KPD1 151658Z 35009KT 09/M03 A3008 RMK A01 T00941026  RH  043%=      5-min Rain = 0
KPD1 151659Z 35009KT 10/M03 A3007 RMK A01 T00951025  RH  043%=      5-min Rain = 0
KPD1 151700Z 35012KT 10/M02 A3007 RMK A01 T00971023  RH  043%=      5-min Rain = 0
KPD1 151701Z 36011KT 10/M03 A3007 RMK A01 T00961026  RH  042%=      5-min Rain = 0
KPD1 151702Z 35010G15KT 10/M03 A3007 RMK A01 T00951026  RH  043%=      5-min Rain = 0
KPD1 151703Z 35013KT 10/M02 A3008 RMK A01 T00961024  RH  043%=      5-min Rain = 0
KPD1 151704Z 01013KT 10/M03 A3008 RMK A01 T00961025  RH  042%=      5-min Rain = 0
KPD1 151705Z 00011KT 10/M03 A3008 RMK A01 T00961026  RH  042%=      5-min Rain = 0
KPD1 151706Z 36010KT 10/M03 A3008 RMK A01 T00951027  RH  042%=      5-min Rain = 0
KPD1 151707Z 00009KT 09/M03 A3008 RMK A01 T00941027  RH  043%=      5-min Rain = 0
KPD1 151708Z 00008KT 09/M03 A3008 RMK A01 T00941026  RH  043%=      5-min Rain = 0
KPD1 151709Z 34010KT 10/M02 A3008 RMK A01 T00961024  RH  043%=      5-min Rain = 0
KPD1 151710Z 34011KT 10/M02 A3008 RMK A01 T00971023  RH  043%=      5-min Rain = 0
KPD1 151711Z 35007KT 10/M02 A3008 RMK A01 T00981023  RH  043%=      5-min Rain = 0
KPD1 151712Z 34011KT 10/M02 A3008 RMK A01 T01001020  RH  043%=      5-min Rain = 0
KPD1 151713Z 36012KT 10/M02 A3008 RMK A01 T01011024  RH  042%=      5-min Rain = 0
KPD1 151714Z 35013KT 10/M03 A3008 RMK A01 T01011025  RH  041%=      5-min Rain = 0
KPD1 151715Z 35011KT 10/M02 A3008 RMK A01 T01011024  RH  041%=      5-min Rain = 0
KPD1 151716Z 01011KT 10/M03 A3008 RMK A01 T01011025  RH  041%=      5-min Rain = 0
KPD1 151717Z 35009KT 10/M03 A3008 RMK A01 T01011025  RH  041%=      5-min Rain = 0
KPD1 151718Z 02010KT 10/M02 A3008 RMK A01 T01021021  RH  042%=      5-min Rain = 0
KPD1 151719Z 35008KT 10/M02 A3008 RMK A01 T01041021  RH  041%=      5-min Rain = 0
KPD1 151720Z 35013KT 11/M02 A3008 RMK A01 T01061020  RH  041%=      5-min Rain = 0
KPD1 151721Z 35013KT 11/M03 A3008 RMK A01 T01061025  RH  040%=      5-min Rain = 0
KPD1 151722Z 00013KT 10/M03 A3008 RMK A01 T01041029  RH  039%=      5-min Rain = 0
KPD1 151723Z 35008G13KT 10/M03 A3008 RMK A01 T01031029  RH  039%=      5-min Rain = 0
KPD1 151724Z 01009KT 11/M02 A3008 RMK A01 T01051024  RH  040%=      5-min Rain = 0
KPD1 151725Z 36008KT 11/M03 A3008 RMK A01 T01071026  RH  039%=      5-min Rain = 0
KPD1 151726Z 01008KT 11/M03 A3008 RMK A01 T01081026  RH  039%=      5-min Rain = 0
KPD1 151727Z 00011KT 11/M03 A3008 RMK A01 T01081026  RH  039%=      5-min Rain = 0
KPD1 151728Z 36012G17KT 11/M03 A3008 RMK A01 T01071028  RH  039%=      5-min Rain = 0
KPD1 151729Z 36014KT 11/M03 A3008 RMK A01 T01061031  RH  038%=      5-min Rain = 0
KPD1 151730Z 01010G16KT 10/M03 A3008 RMK A01 T01041032  RH  038%=      5-min Rain = 0
KPD1 151731Z 01008KT 10/M03 A3008 RMK A01 T01041029  RH  039%=      5-min Rain = 0
KPD1 151732Z 01006KT 11/M03 A3008 RMK A01 T01061028  RH  039%=      5-min Rain = 0
KPD1 151733Z 01010KT 11/M03 A3008 RMK A01 T01081025  RH  039%=      5-min Rain = 0
KPD1 151734Z 00008KT 11/M03 A3008 RMK A01 T01091027  RH  038%=      5-min Rain = 0
KPD1 151735Z 35011KT 11/M03 A3008 RMK A01 T01091028  RH  038%=      5-min Rain = 0
KPD1 151736Z 01010G15KT 11/M03 A3008 RMK A01 T01081026  RH  039%=      5-min Rain = 0
KPD1 151737Z 01010KT 11/M03 A3008 RMK A01 T01091026  RH  039%=      5-min Rain = 0
KPD1 151738Z 35010KT 11/M03 A3008 RMK A01 T01091028  RH  038%=      5-min Rain = 0
KPD1 151739Z 35009KT 11/M03 A3008 RMK A01 T01091029  RH  038%=      5-min Rain = 0
KPD1 151740Z 35007KT 11/M03 A3008 RMK A01 T01091027  RH  038%=      5-min Rain = 0
KPD1 151741Z 00005KT 11/M02 A3008 RMK A01 T01121023  RH  039%=      5-min Rain = 0
KPD1 151742Z 01009KT 12/M02 A3008 RMK A01 T01151021  RH  039%=      5-min Rain = 0
KPD1 151743Z 00010KT 12/M02 A3008 RMK A01 T01151024  RH  038%=      5-min Rain = 0
KPD1 151744Z 36012KT 11/M03 A3008 RMK A01 T01121027  RH  038%=      5-min Rain = 0
KPD1 151745Z 35012KT 11/M03 A3008 RMK A01 T01101028  RH  038%=      5-min Rain = 0
KPD1 151746Z 00011KT 11/M03 A3008 RMK A01 T01091028  RH  038%=      5-min Rain = 0
KPD1 151747Z 01010KT 11/M03 A3008 RMK A01 T01081028  RH  038%=      5-min Rain = 0
KPD1 151748Z 01010KT 11/M03 A3008 RMK A01 T01071030  RH  038%=      5-min Rain = 0
KPD1 151749Z 01011G17KT 11/M03 A3008 RMK A01 T01061029  RH  039%=      5-min Rain = 0
KPD1 151750Z 01013KT 11/M03 A3008 RMK A01 T01061031  RH  038%=      5-min Rain = 0
KPD1 151751Z 01012KT 11/M03 A3008 RMK A01 T01051033  RH  038%=      5-min Rain = 0
KPD1 151752Z 02011KT 10/M03 A3008 RMK A01 T01041030  RH  039%=      5-min Rain = 0
KPD1 151753Z 02012KT 11/M03 A3008 RMK A01 T01061028  RH  039%=      5-min Rain = 0
KPD1 151754Z 02008KT 11/M03 A3008 RMK A01 T01071027  RH  039%=      5-min Rain = 0
KPD1 151755Z 03008KT 11/M03 A3007 RMK A01 T01081026  RH  039%=      5-min Rain = 0
KPD1 151756Z 01009KT 11/M03 A3007 RMK A01 T01091025  RH  039%=      5-min Rain = 0
KPD1 151757Z 02010KT 11/M03 A3007 RMK A01 T01091025  RH  039%=      5-min Rain = 0
KPD1 151758Z 03009G15KT 11/M03 A3007 RMK A01 T01091028  RH  038%=      5-min Rain = 0
KPD1 151759Z 03012KT 11/M03 A3007 RMK A01 T01081031  RH  038%=      5-min Rain = 0
KPD1 151800Z 02011G17KT 11/M03 A3007 RMK A01 T01061031  RH  038%=      5-min Rain = 0
KPD1 151801Z 01007KT 11/M03 A3007 RMK A01 T01061027  RH  039%=      5-min Rain = 0
KPD1 151802Z 01011KT 11/M02 A3007 RMK A01 T01091024  RH  039%=      5-min Rain = 0
KPD1 151803Z 02011G16KT 11/M03 A3007 RMK A01 T01091026  RH  039%=      5-min Rain = 0
KPD1 151804Z 01012KT 11/M03 A3007 RMK A01 T01091026  RH  039%=      5-min Rain = 0
KPD1 151805Z 01012KT 11/M03 A3007 RMK A01 T01101026  RH  039%=      5-min Rain = 0
KPD1 151806Z 01011KT 11/M03 A3007 RMK A01 T01091029  RH  038%=      5-min Rain = 0
KPD1 151807Z 03010G17KT 11/M03 A3007 RMK A01 T01091029  RH  038%=      5-min Rain = 0
KPD1 151808Z 00006KT 11/M03 A3007 RMK A01 T01071031  RH  038%=      5-min Rain = 0
KPD1 151809Z 02007KT 11/M03 A3007 RMK A01 T01071027  RH  039%=      5-min Rain = 0
KPD1 151810Z 01007KT 11/M03 A3007 RMK A01 T01091025  RH  039%=      5-min Rain = 0
KPD1 151811Z 01007KT 11/M02 A3007 RMK A01 T01111023  RH  039%=      5-min Rain = 0
KPD1 151812Z 00011KT 11/M02 A3007 RMK A01 T01141023  RH  038%=      5-min Rain = 0
KPD1 151813Z 36009KT 11/M03 A3007 RMK A01 T01131026  RH  038%=      5-min Rain = 0
KPD1 151814Z 01010KT 11/M03 A3007 RMK A01 T01131027  RH  038%=      5-min Rain = 0
KPD1 151815Z 02010KT 11/M03 A3007 RMK A01 T01121026  RH  038%=      5-min Rain = 0
KPD1 151816Z 01009KT 11/M03 A3007 RMK A01 T01121027  RH  038%=      5-min Rain = 0
KPD1 151817Z 36011KT 11/M03 A3007 RMK A01 T01111027  RH  038%=      5-min Rain = 0
KPD1 151818Z 00011G16KT 11/M03 A3007 RMK A01 T01121029  RH  037%=      5-min Rain = 0
KPD1 151819Z 02010KT 11/M03 A3007 RMK A01 T01121028  RH  037%=      5-min Rain = 0
KPD1 151820Z 02011KT 11/M03 A3007 RMK A01 T01121028  RH  038%=      5-min Rain = 0
KPD1 151821Z 00011KT 11/M03 A3007 RMK A01 T01131027  RH  038%=      5-min Rain = 0
KPD1 151822Z 36010KT 11/M03 A3007 RMK A01 T01131025  RH  038%=      5-min Rain = 0
KPD1 151823Z 01011KT 12/M02 A3007 RMK A01 T01151024  RH  038%=      5-min Rain = 0
KPD1 151824Z 36015KT 12/M03 A3007 RMK A01 T01151027  RH  037%=      5-min Rain = 0
KPD1 151825Z 00014KT 12/M03 A3007 RMK A01 T01151028  RH  037%=      5-min Rain = 0
KPD1 151826Z 00015KT 11/M03 A3007 RMK A01 T01141030  RH  036%=      5-min Rain = 0
KPD1 151827Z 01014KT 11/M03 A3007 RMK A01 T01141030  RH  036%=      5-min Rain = 0
KPD1 151828Z 01011KT 11/M03 A3007 RMK A01 T01131029  RH  037%=      5-min Rain = 0
KPD1 151829Z 01009KT 11/M03 A3007 RMK A01 T01131029  RH  037%=      5-min Rain = 0
KPD1 151830Z 02006KT 11/M03 A3007 RMK A01 T01141027  RH  037%=      5-min Rain = 0
KPD1 151831Z 03007KT 12/M02 A3007 RMK A01 T01161024  RH  038%=      5-min Rain = 0
KPD1 151832Z 02007G12KT 12/M02 A3007 RMK A01 T01191022  RH  037%=      5-min Rain = 0
KPD1 151833Z 02005KT 12/M02 A3007 RMK A01 T01211022  RH  037%=      5-min Rain = 0
KPD1 151834Z 03008KT 12/M02 A3007 RMK A01 T01221022  RH  037%=      5-min Rain = 0
KPD1 151835Z 03006KT 12/M02 A3007 RMK A01 T01221022  RH  037%=      5-min Rain = 0
KPD1 151836Z 01007KT 12/M02 A3007 RMK A01 T01221020  RH  037%=      5-min Rain = 0
KPD1 151837Z 01010KT 12/M02 A3007 RMK A01 T01231021  RH  037%=      5-min Rain = 0
KPD1 151838Z 02007KT 12/M03 A3007 RMK A01 T01231025  RH  036%=      5-min Rain = 0
KPD1 151839Z 03010KT 12/M02 A3006 RMK A01 T01221023  RH  036%=      5-min Rain = 0
KPD1 151840Z 00009KT 12/M03 A3006 RMK A01 T01211025  RH  036%=      5-min Rain = 0
KPD1 151841Z 00011KT 12/M02 A3006 RMK A01 T01211023  RH  037%=      5-min Rain = 0
KPD1 151842Z 01009G15KT 12/M03 A3006 RMK A01 T01201026  RH  036%=      5-min Rain = 0
KPD1 151843Z 36009KT 12/M03 A3006 RMK A01 T01181027  RH  036%=      5-min Rain = 0
KPD1 151844Z 00009KT 12/M03 A3006 RMK A01 T01171028  RH  036%=      5-min Rain = 0
KPD1 151845Z 36005KT 12/M03 A3006 RMK A01 T01161027  RH  037%=      5-min Rain = 0
KPD1 151846Z 02007KT 12/M02 A3006 RMK A01 T01171023  RH  038%=      5-min Rain = 0
KPD1 151847Z 03008KT 12/M02 A3006 RMK A01 T01201021  RH  037%=      5-min Rain = 0
KPD1 151848Z 03009KT 12/M03 A3006 RMK A01 T01201026  RH  036%=      5-min Rain = 0
KPD1 151849Z 01008KT 12/M03 A3006 RMK A01 T01201026  RH  036%=      5-min Rain = 0
KPD1 151850Z 02009KT 12/M02 A3006 RMK A01 T01211024  RH  036%=      5-min Rain = 0
KPD1 151851Z 01006KT 12/M02 A3006 RMK A01 T01241021  RH  036%=      5-min Rain = 0
KPD1 151852Z 36008G13KT 13/M02 A3006 RMK A01 T01261022  RH  036%=      5-min Rain = 0
KPD1 151853Z 01008KT 13/M02 A3006 RMK A01 T01261023  RH  036%=      5-min Rain = 0
KPD1 151854Z 04006KT 13/M03 A3006 RMK A01 T01251025  RH  035%=      5-min Rain = 0
KPD1 151855Z 01009G14KT 13/M02 A3006 RMK A01 T01261022  RH  036%=      5-min Rain = 0
KPD1 151856Z 01010KT 13/M02 A3006 RMK A01 T01271022  RH  035%=      5-min Rain = 0
KPD1 151857Z 00011G18KT 13/M02 A3006 RMK A01 T01271022  RH  035%=      5-min Rain = 0
KPD1 151858Z 01009G14KT 13/M03 A3005 RMK A01 T01271029  RH  034%=      5-min Rain = 0
KPD1 151859Z 04007G13KT 13/M03 A3005 RMK A01 T01251028  RH  034%=      5-min Rain = 0
KPD1 151900Z 04006KT 13/M03 A3005 RMK A01 T01251028  RH  034%=      5-min Rain = 0
KPD1 151901Z 03008KT 13/M03 A3005 RMK A01 T01251027  RH  034%=      5-min Rain = 0
KPD1 151902Z 02009G14KT 13/M03 A3005 RMK A01 T01261026  RH  035%=      5-min Rain = 0
KPD1 151903Z 01015G20KT 13/M03 A3005 RMK A01 T01261026  RH  035%=      5-min Rain = 0
KPD1 151904Z 00011KT 13/M03 A3005 RMK A01 T01261029  RH  034%=      5-min Rain = 0
KPD1 151905Z 01008G13KT 13/M03 A3005 RMK A01 T01261027  RH  034%=      5-min Rain = 0
KPD1 151906Z 01009KT 13/M03 A3005 RMK A01 T01271027  RH  034%=      5-min Rain = 0
KPD1 151907Z 01009KT 13/M03 A3005 RMK A01 T01281026  RH  034%=      5-min Rain = 0
KPD1 151908Z 01010KT 13/M02 A3005 RMK A01 T01281024  RH  035%=      5-min Rain = 0
KPD1 151909Z 01011KT 13/M02 A3005 RMK A01 T01301024  RH  034%=      5-min Rain = 0
KPD1 151910Z 01013KT 13/M03 A3005 RMK A01 T01311025  RH  034%=      5-min Rain = 0
KPD1 151911Z 01015KT 13/M03 A3005 RMK A01 T01301032  RH  032%=      5-min Rain = 0
KPD1 151912Z 01014KT 13/M03 A3005 RMK A01 T01271033  RH  033%=      5-min Rain = 0
KPD1 151913Z 01011KT 13/M03 A3005 RMK A01 T01261031  RH  033%=      5-min Rain = 0
KPD1 151914Z 02006KT 13/M03 A3005 RMK A01 T01251032  RH  033%=      5-min Rain = 0
KPD1 151915Z 03011G16KT 13/M03 A3005 RMK A01 T01251031  RH  034%=      5-min Rain = 0
KPD1 151916Z 01010KT 13/M03 A3005 RMK A01 T01251030  RH  034%=      5-min Rain = 0
KPD1 151917Z 03008KT 13/M03 A3005 RMK A01 T01271029  RH  034%=      5-min Rain = 0
KPD1 151918Z 05007KT 13/M03 A3005 RMK A01 T01281030  RH  033%=      5-min Rain = 0
KPD1 151919Z 03007G12KT 13/M03 A3005 RMK A01 T01291028  RH  033%=      5-min Rain = 0
KPD1 151920Z 04008KT 13/M03 A3005 RMK A01 T01301028  RH  033%=      5-min Rain = 0
KPD1 151921Z 04012KT 13/M03 A3005 RMK A01 T01301029  RH  033%=      5-min Rain = 0
KPD1 151922Z 04008KT 13/M03 A3005 RMK A01 T01291029  RH  033%=      5-min Rain = 0
KPD1 151923Z 03012KT 13/M03 A3005 RMK A01 T01291027  RH  034%=      5-min Rain = 0
KPD1 151924Z 03011KT 13/M03 A3005 RMK A01 T01301027  RH  033%=      5-min Rain = 0
KPD1 151925Z 02010KT 13/M03 A3005 RMK A01 T01311030  RH  033%=      5-min Rain = 0
KPD1 151926Z 02010KT 13/M03 A3004 RMK A01 T01311032  RH  032%=      5-min Rain = 0
KPD1 151927Z 01008KT 13/M03 A3004 RMK A01 T01301031  RH  032%=      5-min Rain = 0
KPD1 151928Z 03010G17KT 13/M03 A3004 RMK A01 T01301031  RH  032%=      5-min Rain = 0
KPD1 151929Z 03011G18KT 13/M03 A3004 RMK A01 T01301031  RH  032%=      5-min Rain = 0
KPD1 151930Z 03007KT 13/M03 A3004 RMK A01 T01301030  RH  033%=      5-min Rain = 0
KPD1 151931Z 04011KT 13/M03 A3004 RMK A01 T01301029  RH  033%=      5-min Rain = 0
KPD1 151932Z 01009G14KT 13/M03 A3004 RMK A01 T01311026  RH  034%=      5-min Rain = 0
KPD1 151933Z 02014KT 13/M03 A3004 RMK A01 T01331028  RH  033%=      5-min Rain = 0
KPD1 151934Z 04011KT 13/M03 A3005 RMK A01 T01311032  RH  032%=      5-min Rain = 0
KPD1 151935Z 04008KT 13/M03 A3004 RMK A01 T01301034  RH  032%=      5-min Rain = 0
KPD1 151936Z 05007KT 13/M03 A3004 RMK A01 T01291034  RH  032%=      5-min Rain = 0
KPD1 151937Z 02006G11KT 13/M03 A3004 RMK A01 T01291030  RH  033%=      5-min Rain = 0
KPD1 151938Z 01009KT 13/M03 A3004 RMK A01 T01311028  RH  033%=      5-min Rain = 0
KPD1 151939Z 03008KT 13/M03 A3004 RMK A01 T01331028  RH  033%=      5-min Rain = 0
KPD1 151940Z 03009KT 13/M03 A3004 RMK A01 T01321030  RH  032%=      5-min Rain = 0
KPD1 151941Z 03010KT 13/M03 A3004 RMK A01 T01321028  RH  033%=      5-min Rain = 0
KPD1 151942Z 02009KT 13/M03 A3004 RMK A01 T01331027  RH  033%=      5-min Rain = 0
KPD1 151943Z 03009KT 13/M03 A3004 RMK A01 T01331028  RH  033%=      5-min Rain = 0
KPD1 151944Z 02007KT 13/M03 A3004 RMK A01 T01321029  RH  033%=      5-min Rain = 0
KPD1 151945Z 04007KT 13/M02 A3004 RMK A01 T01331024  RH  034%=      5-min Rain = 0
KPD1 151946Z 00010KT 14/M02 A3004 RMK A01 T01361022  RH  033%=      5-min Rain = 0
KPD1 151947Z 03008KT 14/M02 A3004 RMK A01 T01381024  RH  033%=      5-min Rain = 0
KPD1 151948Z 03005KT 14/M02 A3004 RMK A01 T01391024  RH  032%=      5-min Rain = 0
KPD1 151949Z 02010KT 14/M03 A3004 RMK A01 T01391025  RH  032%=      5-min Rain = 0
KPD1 151950Z 05012KT 14/M03 A3004 RMK A01 T01391027  RH  032%=      5-min Rain = 0
KPD1 151951Z 05007KT 14/M03 A3004 RMK A01 T01371030  RH  031%=      5-min Rain = 0
KPD1 151952Z 06008KT 14/M03 A3004 RMK A01 T01371029  RH  032%=      5-min Rain = 0
KPD1 151953Z 04008KT 14/M03 A3004 RMK A01 T01371026  RH  032%=      5-min Rain = 0
KPD1 151954Z 05005KT 14/M03 A3004 RMK A01 T01371030  RH  031%=      5-min Rain = 0
KPD1 151955Z 05005KT 14/M03 A3004 RMK A01 T01361028  RH  032%=      5-min Rain = 0
KPD1 151956Z 06007KT 14/M02 A3004 RMK A01 T01391024  RH  032%=      5-min Rain = 0
KPD1 151957Z 04009G14KT 14/M02 A3004 RMK A01 T01411023  RH  032%=      5-min Rain = 0
KPD1 151958Z 04006KT 14/M02 A3004 RMK A01 T01421023  RH  032%=      5-min Rain = 0
KPD1 151959Z 03008KT 14/M02 A3004 RMK A01 T01421022  RH  032%=      5-min Rain = 0
KPD1 152000Z 04009KT 14/M02 A3004 RMK A01 T01431023  RH  032%=      5-min Rain = 0
KPD1 152001Z 03009KT 14/M03 A3004 RMK A01 T01421026  RH  031%=      5-min Rain = 0
KPD1 152002Z 04013KT 14/M03 A3004 RMK A01 T01411025  RH  032%=      5-min Rain = 0
KPD1 152003Z 03012KT 14/M03 A3004 RMK A01 T01391029  RH  031%=      5-min Rain = 0
KPD1 152004Z 04009KT 14/M03 A3004 RMK A01 T01371028  RH  032%=      5-min Rain = 0
KPD1 152005Z 02009KT 14/M03 A3004 RMK A01 T01371027  RH  032%=      5-min Rain = 0
KPD1 152006Z 03010KT 14/M03 A3004 RMK A01 T01381027  RH  032%=      5-min Rain = 0
KPD1 152007Z 03013KT 14/M03 A3004 RMK A01 T01391029  RH  031%=      5-min Rain = 0
KPD1 152008Z 03012KT 14/M03 A3004 RMK A01 T01381031  RH  031%=      5-min Rain = 0
KPD1 152009Z 03010KT 14/M03 A3004 RMK A01 T01371033  RH  031%=      5-min Rain = 0
KPD1 152010Z 03009KT 14/M03 A3004 RMK A01 T01351034  RH  031%=      5-min Rain = 0
KPD1 152011Z 05009KT 14/M03 A3004 RMK A01 T01351033  RH  031%=      5-min Rain = 0
KPD1 152012Z 04008KT 13/M03 A3004 RMK A01 T01341032  RH  031%=      5-min Rain = 0
KPD1 152013Z 03010KT 14/M03 A3004 RMK A01 T01351029  RH  032%=      5-min Rain = 0
KPD1 152014Z 02009G14KT 14/M03 A3004 RMK A01 T01361030  RH  032%=      5-min Rain = 0
KPD1 152015Z 03009KT 14/M03 A3004 RMK A01 T01361029  RH  032%=      5-min Rain = 0
KPD1 152016Z 04008KT 14/M03 A3004 RMK A01 T01371030  RH  031%=      5-min Rain = 0
KPD1 152017Z 03008KT 14/M03 A3004 RMK A01 T01371029  RH  032%=      5-min Rain = 0
KPD1 152018Z 02008KT 14/M03 A3004 RMK A01 T01391029  RH  031%=      5-min Rain = 0
KPD1 152019Z 06008G13KT 14/M03 A3004 RMK A01 T01401028  RH  031%=      5-min Rain = 0
KPD1 152020Z 06008KT 14/M03 A3004 RMK A01 T01411032  RH  030%=      5-min Rain = 0
KPD1 152021Z 04007KT 14/M04 A3004 RMK A01 T01391035  RH  030%=      5-min Rain = 0
KPD1 152022Z 01007KT 14/M03 A3004 RMK A01 T01391031  RH  031%=      5-min Rain = 0
KPD1 152023Z 01008KT 14/M02 A3004 RMK A01 T01421023  RH  032%=      5-min Rain = 0
KPD1 152024Z 02007KT 14/M03 A3004 RMK A01 T01431026  RH  031%=      5-min Rain = 0
KPD1 152025Z 02007KT 14/M03 A3003 RMK A01 T01431025  RH  031%=      5-min Rain = 0
KPD1 152026Z 03011G16KT 14/M03 A3003 RMK A01 T01431025  RH  031%=      5-min Rain = 0
KPD1 152027Z 02009G15KT 14/M03 A3003 RMK A01 T01421028  RH  031%=      5-min Rain = 0
KPD1 152028Z 03008KT 14/M03 A3003 RMK A01 T01401029  RH  031%=      5-min Rain = 0
KPD1 152029Z 04009KT 14/M03 A3003 RMK A01 T01401027  RH  031%=      5-min Rain = 0
KPD1 152030Z 03010KT 14/M03 A3003 RMK A01 T01411026  RH  031%=      5-min Rain = 0
KPD1 152031Z 03008KT 14/M03 A3003 RMK A01 T01411027  RH  031%=      5-min Rain = 0
KPD1 152032Z 03008KT 14/M03 A3003 RMK A01 T01411030  RH  031%=      5-min Rain = 0
KPD1 152033Z 02007KT 14/M03 A3003 RMK A01 T01381032  RH  030%=      5-min Rain = 0
KPD1 152034Z 04008KT 14/M03 A3003 RMK A01 T01391029  RH  031%=      5-min Rain = 0
KPD1 152035Z 04006KT 14/M03 A3003 RMK A01 T01391033  RH  030%=      5-min Rain = 0
KPD1 152036Z 03008KT 14/M03 A3003 RMK A01 T01391028  RH  031%=      5-min Rain = 0
KPD1 152037Z 04009KT 14/M03 A3003 RMK A01 T01421028  RH  031%=      5-min Rain = 0
KPD1 152038Z 05007KT 14/M03 A3003 RMK A01 T01421028  RH  031%=      5-min Rain = 0
KPD1 152039Z 06005KT 14/M03 A3003 RMK A01 T01431027  RH  031%=      5-min Rain = 0
KPD1 152040Z 06005KT 14/M02 A3003 RMK A01 T01431023  RH  032%=      5-min Rain = 0
KPD1 152041Z 08007KT 15/M02 A3003 RMK A01 T01451022  RH  031%=      5-min Rain = 0
KPD1 152042Z 08006KT 15/M03 A3003 RMK A01 T01451026  RH  031%=      5-min Rain = 0
KPD1 152043Z 08006KT 15/M02 A3003 RMK A01 T01451023  RH  031%=      5-min Rain = 0
KPD1 152044Z 03007KT 15/M02 A3003 RMK A01 T01461024  RH  031%=      5-min Rain = 0
KPD1 152045Z 04010KT 15/M02 A3003 RMK A01 T01471021  RH  031%=      5-min Rain = 0
KPD1 152046Z 05008KT 15/M03 A3003 RMK A01 T01451027  RH  030%=      5-min Rain = 0
KPD1 152047Z 06008G13KT 14/M03 A3003 RMK A01 T01441025  RH  031%=      5-min Rain = 0
KPD1 152048Z 06010KT 14/M03 A3003 RMK A01 T01441027  RH  030%=      5-min Rain = 0
KPD1 152049Z 05011KT 14/M03 A3003 RMK A01 T01421032  RH  030%=      5-min Rain = 0
KPD1 152050Z 05007KT 14/M03 A3003 RMK A01 T01411032  RH  030%=      5-min Rain = 0
KPD1 152051Z 05009KT 14/M03 A3003 RMK A01 T01421028  RH  031%=      5-min Rain = 0
KPD1 152052Z 06008KT 14/M03 A3003 RMK A01 T01431031  RH  030%=      5-min Rain = 0
KPD1 152053Z 06006KT 14/M03 A3003 RMK A01 T01421033  RH  030%=      5-min Rain = 0
KPD1 152054Z 06006KT 14/M03 A3003 RMK A01 T01421029  RH  031%=      5-min Rain = 0
KPD1 152055Z 06007KT 14/M03 A3003 RMK A01 T01431030  RH  030%=      5-min Rain = 0
KPD1 152056Z 06006KT 14/M03 A3003 RMK A01 T01431028  RH  031%=      5-min Rain = 0
KPD1 152057Z 05005KT 14/M03 A3003 RMK A01 T01431026  RH  031%=      5-min Rain = 0
KPD1 152058Z 02005KT 14/M03 A3003 RMK A01 T01431025  RH  031%=      5-min Rain = 0
KPD1 152059Z 01006KT 15/M02 A3003 RMK A01 T01451020  RH  032%=      5-min Rain = 0
KPD1 152100Z 01007KT 15/M02 A3003 RMK A01 T01481021  RH  031%=      5-min Rain = 0
KPD1 152101Z 02009KT 15/M02 A3003 RMK A01 T01481022  RH  031%=      5-min Rain = 0
KPD1 152102Z 02007KT 15/M03 A3003 RMK A01 T01471026  RH  030%=      5-min Rain = 0
KPD1 152103Z 03007KT 15/M03 A3003 RMK A01 T01451028  RH  030%=      5-min Rain = 0
KPD1 152104Z 04007KT 14/M03 A3003 RMK A01 T01431026  RH  031%=      5-min Rain = 0
KPD1 152105Z 07007KT 15/M02 A3003 RMK A01 T01451024  RH  031%=      5-min Rain = 0
KPD1 152106Z 06009KT 15/M03 A3003 RMK A01 T01451025  RH  031%=      5-min Rain = 0
KPD1 152107Z 06010KT 14/M03 A3003 RMK A01 T01441028  RH  030%=      5-min Rain = 0
KPD1 152108Z 06007KT 14/M03 A3003 RMK A01 T01421030  RH  030%=      5-min Rain = 0
KPD1 152109Z 06005KT 14/M03 A3003 RMK A01 T01411029  RH  031%=      5-min Rain = 0
KPD1 152110Z 07006KT 14/M03 A3003 RMK A01 T01411028  RH  031%=      5-min Rain = 0
KPD1 152111Z 04007KT 14/M03 A3003 RMK A01 T01421026  RH  031%=      5-min Rain = 0
KPD1 152112Z 04008KT 14/M03 A3003 RMK A01 T01431026  RH  031%=      5-min Rain = 0
KPD1 152113Z 05007KT 14/M03 A3003 RMK A01 T01431029  RH  030%=      5-min Rain = 0
KPD1 152114Z 05005KT 14/M03 A3003 RMK A01 T01421030  RH  030%=      5-min Rain = 0
KPD1 152115Z 05005KT 14/M03 A3003 RMK A01 T01411031  RH  030%=      5-min Rain = 0
KPD1 152116Z 07005KT 14/M03 A3003 RMK A01 T01411027  RH  031%=      5-min Rain = 0
KPD1 152117Z 06006KT 14/M03 A3003 RMK A01 T01431027  RH  031%=      5-min Rain = 0
KPD1 152118Z 07004KT 14/M03 A3003 RMK A01 T01431027  RH  031%=      5-min Rain = 0
KPD1 152119Z 06005KT 14/M03 A3003 RMK A01 T01431025  RH  031%=      5-min Rain = 0
KPD1 152120Z 06006KT 15/M03 A3003 RMK A01 T01451025  RH  031%=      5-min Rain = 0
KPD1 152121Z 07006KT 15/M03 A3003 RMK A01 T01451028  RH  030%=      5-min Rain = 0
KPD1 152122Z 07005KT 14/M03 A3003 RMK A01 T01441031  RH  030%=      5-min Rain = 0
KPD1 152123Z 05007KT 14/M03 A3003 RMK A01 T01431028  RH  031%=      5-min Rain = 0
KPD1 152124Z 04009KT 14/M03 A3003 RMK A01 T01441026  RH  031%=      5-min Rain = 0
KPD1 152125Z 05004KT 14/M03 A3003 RMK A01 T01441031  RH  030%=      5-min Rain = 0
KPD1 152126Z 05006KT 14/M03 A3003 RMK A01 T01431030  RH  030%=      5-min Rain = 0
KPD1 152127Z 04005KT 14/M03 A3003 RMK A01 T01441025  RH  031%=      5-min Rain = 0
KPD1 152128Z 04004KT 15/M03 A3003 RMK A01 T01451025  RH  031%=      5-min Rain = 0
KPD1 152129Z 07005KT 15/M03 A3003 RMK A01 T01461028  RH  030%=      5-min Rain = 0
KPD1 152130Z 04004KT 15/M03 A3003 RMK A01 T01461025  RH  031%=      5-min Rain = 0
KPD1 152131Z 02003KT 15/M03 A3003 RMK A01 T01471027  RH  030%=      5-min Rain = 0
KPD1 152132Z 02004G12KT 15/M03 A3003 RMK A01 T01461029  RH  030%=      5-min Rain = 0
KPD1 152133Z 03007G12KT 15/M03 A3003 RMK A01 T01471026  RH  030%=      5-min Rain = 0
KPD1 152134Z 03009KT 15/M02 A3003 RMK A01 T01481024  RH  030%=      5-min Rain = 0
KPD1 152135Z 04008KT 15/M03 A3003 RMK A01 T01491027  RH  030%=      5-min Rain = 0
KPD1 152136Z 06004KT 15/M03 A3003 RMK A01 T01471030  RH  029%=      5-min Rain = 0
KPD1 152137Z 07007G12KT 15/M03 A3003 RMK A01 T01461028  RH  030%=      5-min Rain = 0
KPD1 152138Z 05008KT 15/M03 A3003 RMK A01 T01461028  RH  030%=      5-min Rain = 0
KPD1 152139Z 04006KT 15/M03 A3003 RMK A01 T01451028  RH  030%=      5-min Rain = 0
KPD1 152140Z 04005KT 14/M03 A3003 RMK A01 T01431030  RH  030%=      5-min Rain = 0
KPD1 152141Z 07003KT 14/M03 A3003 RMK A01 T01431029  RH  030%=      5-min Rain = 0
KPD1 152142Z 09004KT 15/M03 A3003 RMK A01 T01451027  RH  031%=      5-min Rain = 0
KPD1 152143Z 08007KT 15/M03 A3003 RMK A01 T01471026  RH  030%=      5-min Rain = 0
KPD1 152144Z 08005KT 15/M03 A3003 RMK A01 T01481028  RH  029%=      5-min Rain = 0
KPD1 152145Z 08005KT 15/M03 A3003 RMK A01 T01481031  RH  029%=      5-min Rain = 0
KPD1 152146Z 08005KT 15/M03 A3003 RMK A01 T01471031  RH  029%=      5-min Rain = 0
KPD1 152147Z 09004KT 15/M03 A3003 RMK A01 T01471032  RH  029%=      5-min Rain = 0
KPD1 152148Z 06004KT 15/M03 A3003 RMK A01 T01471032  RH  029%=      5-min Rain = 0
KPD1 152149Z 07005KT 15/M03 A3003 RMK A01 T01471030  RH  029%=      5-min Rain = 0
KPD1 152150Z 08005KT 15/M03 A3003 RMK A01 T01481029  RH  029%=      5-min Rain = 0
KPD1 152151Z 09007KT 15/M03 A3003 RMK A01 T01481031  RH  029%=      5-min Rain = 0
KPD1 152152Z 06005KT 15/M03 A3003 RMK A01 T01481032  RH  029%=      5-min Rain = 0
KPD1 152153Z 05003KT 15/M03 A3003 RMK A01 T01481029  RH  029%=      5-min Rain = 0
KPD1 152154Z 06003KT 15/M03 A3003 RMK A01 T01481030  RH  029%=      5-min Rain = 0
KPD1 152155Z 06004G9KT 15/M03 A3003 RMK A01 T01481028  RH  029%=      5-min Rain = 0
KPD1 152156Z 07008KT 15/M03 A3003 RMK A01 T01491026  RH  030%=      5-min Rain = 0
KPD1 152157Z 07008KT 15/M03 A3003 RMK A01 T01481030  RH  029%=      5-min Rain = 0
KPD1 152158Z 08007KT 15/M03 A3003 RMK A01 T01461032  RH  029%=      5-min Rain = 0
KPD1 152159Z 09007KT 15/M03 A3003 RMK A01 T01451031  RH  030%=      5-min Rain = 0
KPD1 152200Z 08005KT 15/M03 A3003 RMK A01 T01451032  RH  029%=      5-min Rain = 0
KPD1 152201Z 08006KT 15/M03 A3003 RMK A01 T01461029  RH  030%=      5-min Rain = 0
KPD1 152202Z 08005KT 15/M03 A3003 RMK A01 T01471031  RH  029%=      5-min Rain = 0
KPD1 152203Z 08004KT 15/M03 A3003 RMK A01 T01471031  RH  029%=      5-min Rain = 0
KPD1 152204Z 07005KT 15/M03 A3003 RMK A01 T01471032  RH  029%=      5-min Rain = 0
KPD1 152205Z 09008KT 15/M03 A3003 RMK A01 T01461033  RH  029%=      5-min Rain = 0
KPD1 152206Z 11006KT 15/M03 A3003 RMK A01 T01461033  RH  029%=      5-min Rain = 0
KPD1 152207Z 12004KT 15/M03 A3003 RMK A01 T01471034  RH  028%=      5-min Rain = 0
KPD1 152208Z 11004KT 15/M04 A3003 RMK A01 T01481035  RH  028%=      5-min Rain = 0
KPD1 152209Z 09006KT 15/M04 A3003 RMK A01 T01481035  RH  028%=      5-min Rain = 0
KPD1 152210Z 08004KT 15/M03 A3003 RMK A01 T01481032  RH  029%=      5-min Rain = 0
KPD1 152211Z 08005KT 15/M03 A3003 RMK A01 T01491032  RH  029%=      5-min Rain = 0
KPD1 152212Z 09006KT 15/M03 A3003 RMK A01 T01491032  RH  029%=      5-min Rain = 0
KPD1 152213Z 08004KT 15/M03 A3003 RMK A01 T01491034  RH  028%=      5-min Rain = 0
KPD1 152214Z 10003KT 15/M04 A3003 RMK A01 T01471036  RH  028%=      5-min Rain = 0
KPD1 152215Z 08004KT 15/M03 A3003 RMK A01 T01471032  RH  029%=      5-min Rain = 0
KPD1 152216Z 09006KT 15/M03 A3003 RMK A01 T01481032  RH  029%=      5-min Rain = 0
KPD1 152217Z 09004KT 15/M03 A3003 RMK A01 T01491031  RH  029%=      5-min Rain = 0
KPD1 152218Z 06003KT 15/M03 A3003 RMK A01 T01511034  RH  028%=      5-min Rain = 0
KPD1 152219Z 05004KT 15/M03 A3003 RMK A01 T01491034  RH  028%=      5-min Rain = 0
KPD1 152220Z 06007KT 15/M03 A3003 RMK A01 T01481033  RH  028%=      5-min Rain = 0
KPD1 152221Z 06008KT 15/M03 A3003 RMK A01 T01461034  RH  029%=      5-min Rain = 0
KPD1 152222Z 06007KT 14/M04 A3003 RMK A01 T01441035  RH  029%=      5-min Rain = 0
KPD1 152223Z 05005KT 14/M03 A3004 RMK A01 T01431034  RH  029%=      5-min Rain = 0
KPD1 152224Z 07005KT 14/M03 A3004 RMK A01 T01431034  RH  029%=      5-min Rain = 0
KPD1 152225Z 06006KT 14/M04 A3004 RMK A01 T01431036  RH  029%=      5-min Rain = 0
KPD1 152226Z 05005KT 14/M03 A3004 RMK A01 T01431034  RH  029%=      5-min Rain = 0
KPD1 152227Z 06005KT 14/M03 A3004 RMK A01 T01431034  RH  029%=      5-min Rain = 0
KPD1 152228Z 07003KT 14/M04 A3004 RMK A01 T01431035  RH  029%=      5-min Rain = 0
KPD1 152229Z 06003KT 14/M03 A3004 RMK A01 T01421033  RH  030%=      5-min Rain = 0
KPD1 152230Z 05005KT 14/M03 A3004 RMK A01 T01431033  RH  029%=      5-min Rain = 0
KPD1 152231Z 05004KT 14/M04 A3004 RMK A01 T01441036  RH  029%=      5-min Rain = 0
KPD1 152232Z 07006KT 14/M04 A3004 RMK A01 T01431035  RH  029%=      5-min Rain = 0
KPD1 152233Z 08004KT 14/M03 A3004 RMK A01 T01431034  RH  029%=      5-min Rain = 0
KPD1 152234Z 06004KT 14/M04 A3005 RMK A01 T01431035  RH  029%=      5-min Rain = 0
KPD1 152235Z 05004KT 14/M04 A3005 RMK A01 T01431036  RH  029%=      5-min Rain = 0
KPD1 152236Z 07004KT 14/M04 A3005 RMK A01 T01431035  RH  029%=      5-min Rain = 0
KPD1 152237Z 07005KT 14/M03 A3005 RMK A01 T01441034  RH  029%=      5-min Rain = 0
KPD1 152238Z 08004KT 14/M04 A3005 RMK A01 T01441035  RH  029%=      5-min Rain = 0
KPD1 152239Z 03004KT 15/M03 A3005 RMK A01 T01451030  RH  030%=      5-min Rain = 0
KPD1 152240Z 04004KT 15/M03 A3005 RMK A01 T01461029  RH  030%=      5-min Rain = 0
KPD1 152241Z 08004KT 15/M03 A3005 RMK A01 T01461029  RH  030%=      5-min Rain = 0
KPD1 152242Z 08006KT 15/M03 A3005 RMK A01 T01461029  RH  030%=      5-min Rain = 0
KPD1 152243Z 06003KT 15/M03 A3005 RMK A01 T01471029  RH  030%=      5-min Rain = 0
KPD1 152244Z 05002KT 15/M03 A3004 RMK A01 T01471030  RH  029%=      5-min Rain = 0
KPD1 152245Z 07003KT 15/M03 A3004 RMK A01 T01471029  RH  030%=      5-min Rain = 0
KPD1 152246Z 10002KT 15/M03 A3004 RMK A01 T01471028  RH  030%=      5-min Rain = 0
KPD1 152247Z 09001KT 15/M03 A3004 RMK A01 T01481029  RH  029%=      5-min Rain = 0
KPD1 152248Z 12003KT 15/M03 A3004 RMK A01 T01481031  RH  029%=      5-min Rain = 0
KPD1 152249Z 14003KT 15/M03 A3004 RMK A01 T01481032  RH  029%=      5-min Rain = 0
KPD1 152250Z 12003KT 15/M03 A3004 RMK A01 T01481031  RH  029%=      5-min Rain = 0
KPD1 152251Z 10004KT 15/M03 A3004 RMK A01 T01481030  RH  029%=      5-min Rain = 0
KPD1 152252Z 08005KT 15/M03 A3004 RMK A01 T01481028  RH  029%=      5-min Rain = 0
KPD1 152253Z 08003KT 15/M03 A3005 RMK A01 T01471032  RH  029%=      5-min Rain = 0
KPD1 152254Z 09003KT 15/M03 A3005 RMK A01 T01461031  RH  029%=      5-min Rain = 0
KPD1 152255Z 09003KT 15/M03 A3005 RMK A01 T01461029  RH  030%=      5-min Rain = 0
KPD1 152256Z 10003KT 15/M03 A3005 RMK A01 T01471027  RH  030%=      5-min Rain = 0
KPD1 152257Z 10004KT 15/M03 A3005 RMK A01 T01471028  RH  030%=      5-min Rain = 0
KPD1 152258Z 11004KT 15/M03 A3005 RMK A01 T01471029  RH  030%=      5-min Rain = 0
KPD1 152259Z 13004KT 15/M03 A3005 RMK A01 T01461030  RH  030%=      5-min Rain = 0
KPD1 152300Z 15004KT 15/M03 A3005 RMK A01 T01461030  RH  030%=      5-min Rain = 0
KPD1 152301Z 14004KT 15/M03 A3005 RMK A01 T01451030  RH  030%=      5-min Rain = 0
KPD1 152302Z 13004KT 15/M03 A3005 RMK A01 T01451029  RH  030%=      5-min Rain = 0
KPD1 152303Z 12003KT 15/M03 A3005 RMK A01 T01451030  RH  030%=      5-min Rain = 0
KPD1 152304Z 08005KT 15/M03 A3005 RMK A01 T01461027  RH  030%=      5-min Rain = 0
KPD1 152305Z 08005KT 15/M03 A3005 RMK A01 T01461026  RH  031%=      5-min Rain = 0
KPD1 152306Z 08005KT 15/M02 A3005 RMK A01 T01451024  RH  031%=      5-min Rain = 0
KPD1 152307Z 06003KT 15/M03 A3005 RMK A01 T01451026  RH  031%=      5-min Rain = 0
KPD1 152308Z 07003KT 15/M03 A3005 RMK A01 T01451026  RH  031%=      5-min Rain = 0
KPD1 152309Z 07004KT 14/M03 A3005 RMK A01 T01441027  RH  031%=      5-min Rain = 0
KPD1 152310Z 09003KT 14/M03 A3005 RMK A01 T01421027  RH  031%=      5-min Rain = 0
KPD1 152311Z 10003KT 14/M03 A3005 RMK A01 T01431026  RH  031%=      5-min Rain = 0
KPD1 152312Z 10004KT 14/M03 A3005 RMK A01 T01431028  RH  031%=      5-min Rain = 0
KPD1 152313Z 06003KT 14/M03 A3005 RMK A01 T01431028  RH  031%=      5-min Rain = 0
KPD1 152314Z 07003KT 14/M03 A3005 RMK A01 T01431027  RH  031%=      5-min Rain = 0
KPD1 152315Z 09002KT 14/M03 A3005 RMK A01 T01431027  RH  031%=      5-min Rain = 0
KPD1 152316Z 10004KT 14/M03 A3005 RMK A01 T01421027  RH  031%=      5-min Rain = 0
KPD1 152317Z 10005KT 14/M03 A3005 RMK A01 T01421027  RH  031%=      5-min Rain = 0
KPD1 152318Z 08005KT 14/M03 A3005 RMK A01 T01431027  RH  031%=      5-min Rain = 0
KPD1 152319Z 07004KT 14/M03 A3005 RMK A01 T01421028  RH  031%=      5-min Rain = 0
KPD1 152320Z 08003KT 14/M03 A3005 RMK A01 T01421025  RH  032%=      5-min Rain = 0
KPD1 152321Z 06003KT 14/M02 A3005 RMK A01 T01421024  RH  032%=      5-min Rain = 0
KPD1 152322Z 07003KT 14/M02 A3005 RMK A01 T01421023  RH  032%=      5-min Rain = 0
KPD1 152323Z 08002KT 14/M02 A3005 RMK A01 T01421024  RH  032%=      5-min Rain = 0
KPD1 152324Z 09003KT 14/M03 A3005 RMK A01 T01421026  RH  031%=      5-min Rain = 0
KPD1 152325Z 09003KT 14/M02 A3005 RMK A01 T01421024  RH  032%=      5-min Rain = 0
KPD1 152326Z 09004KT 14/M03 A3005 RMK A01 T01421025  RH  031%=      5-min Rain = 0
KPD1 152327Z 10003KT 14/M03 A3005 RMK A01 T01421025  RH  031%=      5-min Rain = 0
KPD1 152328Z 11005KT 14/M02 A3005 RMK A01 T01421024  RH  032%=      5-min Rain = 0
KPD1 152329Z 10004KT 14/M03 A3005 RMK A01 T01411026  RH  031%=      5-min Rain = 0
KPD1 152330Z 11003KT 14/M03 A3005 RMK A01 T01411027  RH  031%=      5-min Rain = 0
KPD1 152331Z 09002KT 14/M03 A3005 RMK A01 T01401027  RH  031%=      5-min Rain = 0
KPD1 152332Z 11003KT 14/M03 A3005 RMK A01 T01401025  RH  032%=      5-min Rain = 0
KPD1 152333Z 14004KT 14/M03 A3005 RMK A01 T01401026  RH  032%=      5-min Rain = 0
KPD1 152334Z 10004KT 14/M03 A3005 RMK A01 T01401027  RH  031%=      5-min Rain = 0
KPD1 152335Z 07004KT 14/M03 A3005 RMK A01 T01401028  RH  031%=      5-min Rain = 0
KPD1 152336Z 10003KT 14/M03 A3005 RMK A01 T01391027  RH  032%=      5-min Rain = 0
KPD1 152337Z 10002KT 14/M03 A3005 RMK A01 T01391025  RH  032%=      5-min Rain = 0
KPD1 152338Z 11001KT 14/M03 A3005 RMK A01 T01391026  RH  032%=      5-min Rain = 0
KPD1 152339Z 11001KT 14/M03 A3005 RMK A01 T01401027  RH  032%=      5-min Rain = 0
KPD1 152340Z 08002KT 14/M03 A3005 RMK A01 T01411027  RH  031%=      5-min Rain = 0
KPD1 152341Z 10003KT 14/M03 A3005 RMK A01 T01411026  RH  031%=      5-min Rain = 0
KPD1 152342Z 11004KT 14/M03 A3005 RMK A01 T01401027  RH  031%=      5-min Rain = 0
KPD1 152343Z 10005KT 14/M03 A3005 RMK A01 T01381029  RH  031%=      5-min Rain = 0
KPD1 152344Z 08003KT 14/M03 A3005 RMK A01 T01371028  RH  032%=      5-min Rain = 0
KPD1 152345Z 10003KT 14/M03 A3005 RMK A01 T01361026  RH  032%=      5-min Rain = 0
KPD1 152346Z 12002KT 14/M03 A3005 RMK A01 T01351028  RH  032%=      5-min Rain = 0
KPD1 152347Z 09003KT 13/M03 A3005 RMK A01 T01341028  RH  032%=      5-min Rain = 0
KPD1 152348Z 07004KT 13/M03 A3005 RMK A01 T01341028  RH  032%=      5-min Rain = 0
KPD1 152349Z 08004KT 13/M03 A3005 RMK A01 T01341027  RH  033%=      5-min Rain = 0
KPD1 152350Z 08003KT 13/M03 A3005 RMK A01 T01331028  RH  033%=      5-min Rain = 0
KPD1 152351Z 10002KT 13/M03 A3005 RMK A01 T01331027  RH  033%=      5-min Rain = 0
KPD1 152352Z 10002KT 13/M03 A3005 RMK A01 T01331026  RH  033%=      5-min Rain = 0
KPD1 152353Z 10001KT 13/M03 A3005 RMK A01 T01321028  RH  033%=      5-min Rain = 0
KPD1 152354Z 10001KT 13/M03 A3005 RMK A01 T01321029  RH  033%=      5-min Rain = 0
KPD1 152355Z 10001KT 13/M03 A3005 RMK A01 T01321028  RH  033%=      5-min Rain = 0
KPD1 152356Z 11001KT 13/M03 A3005 RMK A01 T01321028  RH  033%=      5-min Rain = 0
KPD1 152357Z 09002KT 13/M03 A3005 RMK A01 T01331028  RH  033%=      5-min Rain = 0
KPD1 152358Z 09001KT 13/M03 A3005 RMK A01 T01331029  RH  032%=      5-min Rain = 0
KPD1 152359Z 10001KT 13/M03 A3005 RMK A01 T01331029  RH  032%=      5-min Rain = 0
KPD1 160000Z 08001KT 13/M03 A3005 RMK A01 T01331029  RH  032%=      5-min Rain = 0
KPD1 160001Z 09001KT 13/M03 A3005 RMK A01 T01321028  RH  033%=      5-min Rain = 0
KPD1 160002Z 10002KT 13/M03 A3005 RMK A01 T01321028  RH  033%=      5-min Rain = 0
KPD1 160003Z 10001KT 13/M03 A3005 RMK A01 T01311027  RH  033%=      5-min Rain = 0
KPD1 160004Z 12002KT 13/M03 A3005 RMK A01 T01311028  RH  033%=      5-min Rain = 0
KPD1 160005Z 11002KT 13/M03 A3005 RMK A01 T01301030  RH  033%=      5-min Rain = 0
KPD1 160006Z 10001KT 13/M03 A3005 RMK A01 T01291030  RH  033%=      5-min Rain = 0
KPD1 160007Z 12003KT 13/M03 A3005 RMK A01 T01291029  RH  033%=      5-min Rain = 0
KPD1 160008Z 10002KT 13/M03 A3005 RMK A01 T01281030  RH  033%=      5-min Rain = 0
KPD1 160009Z 08002KT 13/M03 A3005 RMK A01 T01281030  RH  033%=      5-min Rain = 0
KPD1 160010Z 08002KT 13/M03 A3005 RMK A01 T01271030  RH  033%=      5-min Rain = 0
KPD1 160011Z 11000KT 13/M03 A3005 RMK A01 T01261028  RH  034%=      5-min Rain = 0
KPD1 160012Z 07001KT 13/M03 A3005 RMK A01 T01251028  RH  034%=      5-min Rain = 0
KPD1 160013Z 08001KT 12/M03 A3005 RMK A01 T01241027  RH  035%=      5-min Rain = 0
KPD1 160014Z 07001KT 12/M03 A3005 RMK A01 T01231029  RH  035%=      5-min Rain = 0
KPD1 160015Z 07001KT 12/M03 A3005 RMK A01 T01231032  RH  034%=      5-min Rain = 0
KPD1 160016Z 06001KT 12/M03 A3006 RMK A01 T01231032  RH  034%=      5-min Rain = 0
KPD1 160017Z 06002KT 12/M03 A3006 RMK A01 T01221032  RH  034%=      5-min Rain = 0
KPD1 160018Z 06002KT 12/M03 A3006 RMK A01 T01221031  RH  034%=      5-min Rain = 0
KPD1 160019Z 06002KT 12/M03 A3006 RMK A01 T01211032  RH  034%=      5-min Rain = 0
KPD1 160020Z 06001KT 12/M03 A3006 RMK A01 T01201032  RH  034%=      5-min Rain = 0
KPD1 160021Z 06001KT 12/M03 A3006 RMK A01 T01201031  RH  035%=      5-min Rain = 0
KPD1 160022Z 06002KT 12/M03 A3006 RMK A01 T01181031  RH  035%=      5-min Rain = 0
KPD1 160023Z 06002KT 12/M03 A3006 RMK A01 T01171031  RH  035%=      5-min Rain = 0
KPD1 160024Z 05002KT 12/M03 A3006 RMK A01 T01161031  RH  036%=      5-min Rain = 0
KPD1 160025Z 04002KT 12/M03 A3006 RMK A01 T01151031  RH  036%=      5-min Rain = 0
KPD1 160026Z 04002KT 11/M03 A3006 RMK A01 T01131031  RH  036%=      5-min Rain = 0
KPD1 160027Z 04002KT 11/M03 A3006 RMK A01 T01131031  RH  036%=      5-min Rain = 0
KPD1 160028Z 04002KT 11/M03 A3006 RMK A01 T01121031  RH  037%=      5-min Rain = 0
KPD1 160029Z 04002KT 11/M03 A3006 RMK A01 T01111031  RH  037%=      5-min Rain = 0
KPD1 160030Z 05001KT 11/M03 A3006 RMK A01 T01101031  RH  037%=      5-min Rain = 0
KPD1 160031Z 06001KT 11/M03 A3006 RMK A01 T01101033  RH  037%=      5-min Rain = 0
KPD1 160032Z 05001KT 11/M03 A3006 RMK A01 T01091032  RH  037%=      5-min Rain = 0
KPD1 160033Z 04001KT 11/M03 A3006 RMK A01 T01081031  RH  038%=      5-min Rain = 0
KPD1 160034Z 03001KT 11/M03 A3006 RMK A01 T01071032  RH  037%=      5-min Rain = 0
KPD1 160035Z 00000KT 11/M03 A3006 RMK A01 T01071033  RH  038%=      5-min Rain = 0
KPD1 160036Z 03000KT 11/M03 A3006 RMK A01 T01051030  RH  039%=      5-min Rain = 0
KPD1 160037Z 03000KT 10/M03 A3006 RMK A01 T01021032  RH  039%=      5-min Rain = 0
KPD1 160038Z 00000KT 10/M03 A3006 RMK A01 T01021033  RH  039%=      5-min Rain = 0
KPD1 160039Z 01000KT 10/M03 A3006 RMK A01 T01011033  RH  039%=      5-min Rain = 0
KPD1 160040Z 03001KT 10/M03 A3006 RMK A01 T01001033  RH  039%=      5-min Rain = 0
KPD1 160041Z 36001KT 10/M03 A3006 RMK A01 T01011033  RH  039%=      5-min Rain = 0
KPD1 160042Z 01000KT 10/M03 A3006 RMK A01 T01021032  RH  039%=      5-min Rain = 0
KPD1 160043Z 02002KT 10/M03 A3006 RMK A01 T01031032  RH  038%=      5-min Rain = 0
KPD1 160044Z 03002KT 10/M03 A3006 RMK A01 T01031031  RH  039%=      5-min Rain = 0
KPD1 160045Z 03002KT 10/M03 A3006 RMK A01 T01011032  RH  039%=      5-min Rain = 0
KPD1 160046Z 06003KT 10/M03 A3006 RMK A01 T01021031  RH  039%=      5-min Rain = 0
KPD1 160047Z 06002KT 10/M03 A3006 RMK A01 T01011032  RH  039%=      5-min Rain = 0
KPD1 160048Z 05003KT 10/M03 A3006 RMK A01 T01011031  RH  039%=      5-min Rain = 0
KPD1 160049Z 05003KT 10/M03 A3006 RMK A01 T01011031  RH  040%=      5-min Rain = 0
KPD1 160050Z 05004KT 10/M03 A3006 RMK A01 T01001030  RH  040%=      5-min Rain = 0
KPD1 160051Z 07004KT 10/M03 A3006 RMK A01 T01001029  RH  040%=      5-min Rain = 0
KPD1 160052Z 07003KT 10/M03 A3006 RMK A01 T01021028  RH  040%=      5-min Rain = 0
KPD1 160053Z 07002KT 10/M03 A3006 RMK A01 T01041028  RH  040%=      5-min Rain = 0
KPD1 160054Z 06002KT 11/M03 A3006 RMK A01 T01051027  RH  040%=      5-min Rain = 0
KPD1 160055Z 07003KT 11/M03 A3006 RMK A01 T01051026  RH  040%=      5-min Rain = 0
KPD1 160056Z 08003KT 10/M03 A3006 RMK A01 T01041027  RH  040%=      5-min Rain = 0
KPD1 160057Z 09004KT 10/M03 A3005 RMK A01 T01031027  RH  040%=      5-min Rain = 0
KPD1 160058Z 08004KT 10/M03 A3006 RMK A01 T01021026  RH  041%=      5-min Rain = 0
KPD1 160059Z 09005KT 10/M03 A3006 RMK A01 T01001026  RH  041%=      5-min Rain = 0
KPD1 160100Z 08004KT 10/M03 A3006 RMK A01 T00991026  RH  041%=      5-min Rain = 0
KPD1 160101Z 06004KT 10/M03 A3006 RMK A01 T00991026  RH  041%=      5-min Rain = 0
KPD1 160102Z 09003KT 10/M03 A3006 RMK A01 T01001027  RH  041%=      5-min Rain = 0
KPD1 160103Z 07004KT 10/M03 A3006 RMK A01 T01011026  RH  041%=      5-min Rain = 0
KPD1 160104Z 08002KT 10/M03 A3006 RMK A01 T01021028  RH  040%=      5-min Rain = 0
KPD1 160105Z 08004KT 11/M03 A3006 RMK A01 T01051028  RH  039%=      5-min Rain = 0
KPD1 160106Z 08004KT 11/M03 A3006 RMK A01 T01071028  RH  039%=      5-min Rain = 0
KPD1 160107Z 09003KT 11/M03 A3006 RMK A01 T01081028  RH  039%=      5-min Rain = 0
KPD1 160108Z 08002KT 11/M03 A3006 RMK A01 T01071027  RH  039%=      5-min Rain = 0
KPD1 160109Z 08004KT 11/M03 A3006 RMK A01 T01071027  RH  039%=      5-min Rain = 0
KPD1 160110Z 08004KT 11/M03 A3005 RMK A01 T01061027  RH  039%=      5-min Rain = 0
KPD1 160111Z 07004KT 11/M03 A3005 RMK A01 T01051028  RH  039%=      5-min Rain = 0
KPD1 160112Z 08003KT 11/M03 A3005 RMK A01 T01051028  RH  039%=      5-min Rain = 0
KPD1 160113Z 08003KT 10/M03 A3005 RMK A01 T01041027  RH  040%=      5-min Rain = 0
KPD1 160114Z 08004KT 10/M03 A3005 RMK A01 T01041027  RH  040%=      5-min Rain = 0
KPD1 160115Z 08004KT 10/M03 A3005 RMK A01 T01031028  RH  040%=      5-min Rain = 0
KPD1 160116Z 08004KT 10/M03 A3005 RMK A01 T01021027  RH  040%=      5-min Rain = 0
KPD1 160117Z 08004KT 10/M03 A3005 RMK A01 T01011027  RH  040%=      5-min Rain = 0
KPD1 160118Z 07005KT 10/M03 A3005 RMK A01 T01011027  RH  041%=      5-min Rain = 0
KPD1 160119Z 06004KT 10/M03 A3005 RMK A01 T01021028  RH  040%=      5-min Rain = 0
KPD1 160120Z 09003KT 10/M03 A3005 RMK A01 T01031027  RH  040%=      5-min Rain = 0
KPD1 160121Z 09003KT 10/M03 A3005 RMK A01 T01031027  RH  040%=      5-min Rain = 0
KPD1 160122Z 07004KT 10/M03 A3005 RMK A01 T01021027  RH  040%=      5-min Rain = 0
KPD1 160123Z 08004KT 10/M03 A3005 RMK A01 T01021027  RH  040%=      5-min Rain = 0
KPD1 160124Z 08004KT 10/M03 A3005 RMK A01 T01011028  RH  040%=      5-min Rain = 0
KPD1 160125Z 08003KT 10/M03 A3005 RMK A01 T01001028  RH  040%=      5-min Rain = 0
KPD1 160126Z 09004KT 10/M03 A3005 RMK A01 T01001028  RH  040%=      5-min Rain = 0
KPD1 160127Z 09003KT 10/M03 A3005 RMK A01 T01011028  RH  040%=      5-min Rain = 0
KPD1 160128Z 08004KT 10/M03 A3005 RMK A01 T01001028  RH  041%=      5-min Rain = 0
KPD1 160129Z 09005KT 10/M03 A3005 RMK A01 T01001028  RH  040%=      5-min Rain = 0
KPD1 160130Z 09005KT 10/M03 A3005 RMK A01 T01001028  RH  041%=      5-min Rain = 0
KPD1 160131Z 08004KT 10/M03 A3005 RMK A01 T01001028  RH  041%=      5-min Rain = 0
KPD1 160132Z 09004KT 10/M03 A3005 RMK A01 T00991028  RH  041%=      5-min Rain = 0
KPD1 160133Z 10004KT 10/M03 A3005 RMK A01 T00991028  RH  041%=      5-min Rain = 0
KPD1 160134Z 11004KT 10/M03 A3005 RMK A01 T00981028  RH  041%=      5-min Rain = 0
KPD1 160135Z 10004KT 10/M03 A3005 RMK A01 T00981028  RH  041%=      5-min Rain = 0
KPD1 160136Z 12003KT 10/M03 A3005 RMK A01 T00971028  RH  041%=      5-min Rain = 0
KPD1 160137Z 10004KT 10/M03 A3005 RMK A01 T00961029  RH  041%=      5-min Rain = 0
KPD1 160138Z 09005KT 10/M03 A3005 RMK A01 T00951029  RH  042%=      5-min Rain = 0
KPD1 160139Z 09004KT 09/M03 A3005 RMK A01 T00941028  RH  042%=      5-min Rain = 0
KPD1 160140Z 10004KT 09/M03 A3004 RMK A01 T00941028  RH  042%=      5-min Rain = 0
KPD1 160141Z 11004KT 09/M03 A3004 RMK A01 T00931028  RH  042%=      5-min Rain = 0
KPD1 160142Z 12004KT 09/M03 A3004 RMK A01 T00931028  RH  042%=      5-min Rain = 0
KPD1 160143Z 11004KT 09/M03 A3004 RMK A01 T00931028  RH  042%=      5-min Rain = 0
KPD1 160144Z 11003KT 09/M03 A3004 RMK A01 T00931029  RH  042%=      5-min Rain = 0
KPD1 160145Z 11003KT 09/M03 A3004 RMK A01 T00931029  RH  042%=      5-min Rain = 0
KPD1 160146Z 12002KT 09/M03 A3004 RMK A01 T00931030  RH  042%=      5-min Rain = 0
KPD1 160147Z 12002KT 09/M03 A3004 RMK A01 T00921030  RH  042%=      5-min Rain = 0
KPD1 160148Z 12002KT 09/M03 A3004 RMK A01 T00921030  RH  042%=      5-min Rain = 0
KPD1 160149Z 11002KT 09/M03 A3004 RMK A01 T00911031  RH  042%=      5-min Rain = 0
KPD1 160150Z 11002KT 09/M03 A3004 RMK A01 T00901030  RH  043%=      5-min Rain = 0
KPD1 160151Z 10002KT 09/M03 A3004 RMK A01 T00891030  RH  043%=      5-min Rain = 0
KPD1 160152Z 11002KT 09/M03 A3004 RMK A01 T00881030  RH  043%=      5-min Rain = 0
KPD1 160153Z 12003KT 09/M03 A3004 RMK A01 T00881030  RH  043%=      5-min Rain = 0
KPD1 160154Z 12003KT 09/M03 A3004 RMK A01 T00881029  RH  043%=      5-min Rain = 0
KPD1 160155Z 11002KT 09/M03 A3004 RMK A01 T00881029  RH  043%=      5-min Rain = 0
KPD1 160156Z 11003KT 09/M03 A3004 RMK A01 T00881029  RH  044%=      5-min Rain = 0
KPD1 160157Z 12002KT 09/M03 A3004 RMK A01 T00881029  RH  044%=      5-min Rain = 0
KPD1 160158Z 12002KT 09/M03 A3004 RMK A01 T00891029  RH  044%=      5-min Rain = 0
KPD1 160159Z 11002KT 09/M03 A3004 RMK A01 T00881029  RH  044%=      5-min Rain = 0
KPD1 160200Z 11003KT 09/M03 A3004 RMK A01 T00881029  RH  044%=      5-min Rain = 0
KPD1 160201Z 11002KT 09/M03 A3004 RMK A01 T00871029  RH  044%=      5-min Rain = 0
KPD1 160202Z 11002KT 09/M03 A3004 RMK A01 T00871029  RH  044%=      5-min Rain = 0
KPD1 160203Z 10004KT 09/M03 A3004 RMK A01 T00861029  RH  044%=      5-min Rain = 0
KPD1 160204Z 11004KT 09/M03 A3004 RMK A01 T00851029  RH  044%=      5-min Rain = 0
KPD1 160205Z 13004KT 09/M03 A3004 RMK A01 T00851030  RH  044%=      5-min Rain = 0
KPD1 160206Z 13003KT 09/M03 A3004 RMK A01 T00851031  RH  044%=      5-min Rain = 0
KPD1 160207Z 11002KT 08/M03 A3003 RMK A01 T00841031  RH  044%=      5-min Rain = 0
KPD1 160208Z 12002KT 08/M03 A3003 RMK A01 T00841031  RH  044%=      5-min Rain = 0
KPD1 160209Z 11003KT 08/M03 A3003 RMK A01 T00841031  RH  044%=      5-min Rain = 0
KPD1 160210Z 11003KT 09/M03 A3003 RMK A01 T00851030  RH  044%=      5-min Rain = 0
KPD1 160211Z 10002KT 09/M03 A3004 RMK A01 T00851030  RH  044%=      5-min Rain = 0
KPD1 160212Z 09002KT 09/M03 A3004 RMK A01 T00851029  RH  044%=      5-min Rain = 0
KPD1 160213Z 10001KT 09/M03 A3004 RMK A01 T00851029  RH  044%=      5-min Rain = 0
KPD1 160214Z 07001KT 09/M03 A3004 RMK A01 T00851029  RH  044%=      5-min Rain = 0
KPD1 160215Z 09002KT 09/M03 A3004 RMK A01 T00851029  RH  044%=      5-min Rain = 0
KPD1 160216Z 08003KT 08/M03 A3004 RMK A01 T00841029  RH  045%=      5-min Rain = 0
KPD1 160217Z 09003KT 08/M03 A3004 RMK A01 T00831029  RH  045%=      5-min Rain = 0
KPD1 160218Z 09002KT 08/M03 A3004 RMK A01 T00821029  RH  045%=      5-min Rain = 0
KPD1 160219Z 08001KT 08/M03 A3004 RMK A01 T00811030  RH  046%=      5-min Rain = 0
KPD1 160220Z 07001KT 08/M03 A3004 RMK A01 T00821030  RH  045%=      5-min Rain = 0
KPD1 160221Z 09002KT 08/M03 A3004 RMK A01 T00831030  RH  045%=      5-min Rain = 0
KPD1 160222Z 10003KT 08/M03 A3004 RMK A01 T00831030  RH  045%=      5-min Rain = 0
KPD1 160223Z 10003KT 08/M03 A3004 RMK A01 T00831030  RH  045%=      5-min Rain = 0
KPD1 160224Z 10003KT 08/M03 A3004 RMK A01 T00831030  RH  045%=      5-min Rain = 0
KPD1 160225Z 10003KT 08/M03 A3003 RMK A01 T00821030  RH  045%=      5-min Rain = 0
KPD1 160226Z 11003KT 08/M03 A3003 RMK A01 T00821030  RH  045%=      5-min Rain = 0
KPD1 160227Z 10004KT 08/M03 A3003 RMK A01 T00811030  RH  045%=      5-min Rain = 0
KPD1 160228Z 11003KT 08/M03 A3003 RMK A01 T00811030  RH  046%=      5-min Rain = 0
KPD1 160229Z 12003KT 08/M03 A3003 RMK A01 T00801031  RH  046%=      5-min Rain = 0
KPD1 160230Z 12003KT 08/M03 A3003 RMK A01 T00801031  RH  046%=      5-min Rain = 0
KPD1 160231Z 13003KT 08/M03 A3003 RMK A01 T00801031  RH  046%=      5-min Rain = 0
KPD1 160232Z 12002KT 08/M03 A3003 RMK A01 T00801031  RH  045%=      5-min Rain = 0
KPD1 160233Z 13002KT 08/M03 A3003 RMK A01 T00791032  RH  046%=      5-min Rain = 0
KPD1 160234Z 13003KT 08/M03 A3003 RMK A01 T00781032  RH  046%=      5-min Rain = 0
KPD1 160235Z 14002KT 08/M03 A3003 RMK A01 T00771032  RH  046%=      5-min Rain = 0
KPD1 160236Z 14001KT 08/M03 A3003 RMK A01 T00771032  RH  046%=      5-min Rain = 0
KPD1 160237Z 13002KT 08/M03 A3003 RMK A01 T00761032  RH  046%=      5-min Rain = 0
KPD1 160238Z 14001KT 08/M03 A3003 RMK A01 T00751032  RH  046%=      5-min Rain = 0
KPD1 160239Z 15001KT 07/M03 A3003 RMK A01 T00741033  RH  046%=      5-min Rain = 0
KPD1 160240Z 16001KT 07/M03 A3003 RMK A01 T00741034  RH  046%=      5-min Rain = 0
KPD1 160241Z 14001KT 07/M03 A3004 RMK A01 T00741033  RH  047%=      5-min Rain = 0
KPD1 160242Z 14001KT 07/M03 A3004 RMK A01 T00731033  RH  047%=      5-min Rain = 0
KPD1 160243Z 13002KT 07/M03 A3004 RMK A01 T00721033  RH  047%=      5-min Rain = 0
KPD1 160244Z 14002KT 07/M03 A3004 RMK A01 T00721033  RH  047%=      5-min Rain = 0
KPD1 160245Z 13001KT 07/M03 A3004 RMK A01 T00711033  RH  047%=      5-min Rain = 0
KPD1 160246Z 12000KT 07/M03 A3004 RMK A01 T00701033  RH  048%=      5-min Rain = 0
KPD1 160247Z 00000KT 07/M03 A3004 RMK A01 T00701033  RH  048%=      5-min Rain = 0
KPD1 160248Z 00000KT 07/M03 A3004 RMK A01 T00691033  RH  048%=      5-min Rain = 0
KPD1 160249Z 17001KT 07/M03 A3004 RMK A01 T00701033  RH  048%=      5-min Rain = 0
KPD1 160250Z 15001KT 07/M03 A3004 RMK A01 T00711032  RH  048%=      5-min Rain = 0
KPD1 160251Z 18000KT 07/M03 A3004 RMK A01 T00711032  RH  048%=      5-min Rain = 0
KPD1 160252Z 00000KT 07/M03 A3004 RMK A01 T00691033  RH  048%=      5-min Rain = 0
KPD1 160253Z 15000KT 07/M03 A3004 RMK A01 T00681033  RH  048%=      5-min Rain = 0
KPD1 160254Z 08000KT 07/M03 A3004 RMK A01 T00671034  RH  049%=      5-min Rain = 0
KPD1 160255Z 00000KT 07/M03 A3004 RMK A01 T00671033  RH  049%=      5-min Rain = 0
KPD1 160256Z 09000KT 07/M03 A3004 RMK A01 T00671034  RH  049%=      5-min Rain = 0
KPD1 160257Z 13001KT 07/M03 A3004 RMK A01 T00671033  RH  049%=      5-min Rain = 0
KPD1 160258Z 13002KT 07/M03 A3004 RMK A01 T00671033  RH  049%=      5-min Rain = 0
KPD1 160259Z 13002KT 07/M03 A3004 RMK A01 T00661034  RH  049%=      5-min Rain = 0
KPD1 160300Z 13002KT 07/M03 A3004 RMK A01 T00671034  RH  048%=      5-min Rain = 0
KPD1 160301Z 16002KT 07/M03 A3004 RMK A01 T00681034  RH  048%=      5-min Rain = 0
KPD1 160302Z 17002KT 07/M03 A3004 RMK A01 T00701034  RH  048%=      5-min Rain = 0
KPD1 160303Z 17003KT 07/M03 A3003 RMK A01 T00711033  RH  048%=      5-min Rain = 0
KPD1 160304Z 17003KT 07/M03 A3003 RMK A01 T00721033  RH  047%=      5-min Rain = 0
KPD1 160305Z 17003KT 07/M03 A3003 RMK A01 T00721033  RH  047%=      5-min Rain = 0
KPD1 160306Z 16004KT 07/M03 A3003 RMK A01 T00711033  RH  047%=      5-min Rain = 0
KPD1 160307Z 14005KT 07/M03 A3003 RMK A01 T00701033  RH  048%=      5-min Rain = 0
KPD1 160308Z 13004KT 07/M03 A3003 RMK A01 T00691033  RH  048%=      5-min Rain = 0
KPD1 160309Z 13004KT 07/M03 A3003 RMK A01 T00701033  RH  048%=      5-min Rain = 0
KPD1 160310Z 13004KT 07/M03 A3003 RMK A01 T00711033  RH  048%=      5-min Rain = 0
KPD1 160311Z 13004KT 07/M03 A3003 RMK A01 T00711032  RH  048%=      5-min Rain = 0
KPD1 160312Z 13003KT 07/M03 A3004 RMK A01 T00711032  RH  048%=      5-min Rain = 0
KPD1 160313Z 13003KT 07/M03 A3004 RMK A01 T00721032  RH  048%=      5-min Rain = 0
KPD1 160314Z 14003KT 07/M03 A3004 RMK A01 T00711032  RH  048%=      5-min Rain = 0
KPD1 160315Z 14003KT 07/M03 A3004 RMK A01 T00701032  RH  048%=      5-min Rain = 0
KPD1 160316Z 16003KT 07/M03 A3004 RMK A01 T00701032  RH  048%=      5-min Rain = 0
KPD1 160317Z 15003KT 07/M03 A3004 RMK A01 T00691032  RH  049%=      5-min Rain = 0
KPD1 160318Z 15002KT 07/M03 A3003 RMK A01 T00681032  RH  049%=      5-min Rain = 0
KPD1 160319Z 15002KT 07/M03 A3003 RMK A01 T00681032  RH  049%=      5-min Rain = 0
KPD1 160320Z 14003KT 07/M03 A3003 RMK A01 T00671032  RH  049%=      5-min Rain = 0
KPD1 160321Z 14004KT 07/M03 A3003 RMK A01 T00661032  RH  050%=      5-min Rain = 0
KPD1 160322Z 14003KT 07/M03 A3003 RMK A01 T00651032  RH  050%=      5-min Rain = 0
KPD1 160323Z 14004KT 07/M03 A3003 RMK A01 T00651032  RH  050%=      5-min Rain = 0
KPD1 160324Z 15003KT 07/M03 A3003 RMK A01 T00651032  RH  050%=      5-min Rain = 0
KPD1 160325Z 15003KT 07/M03 A3003 RMK A01 T00651033  RH  050%=      5-min Rain = 0
KPD1 160326Z 15002KT 06/M03 A3003 RMK A01 T00641033  RH  050%=      5-min Rain = 0
KPD1 160327Z 14002KT 06/M03 A3003 RMK A01 T00631033  RH  050%=      5-min Rain = 0
KPD1 160328Z 14002KT 06/M03 A3003 RMK A01 T00621034  RH  050%=      5-min Rain = 0
KPD1 160329Z 15002KT 06/M03 A3003 RMK A01 T00611033  RH  051%=      5-min Rain = 0
KPD1 160330Z 15002KT 06/M03 A3003 RMK A01 T00611034  RH  051%=      5-min Rain = 0
KPD1 160331Z 15002KT 06/M03 A3003 RMK A01 T00601034  RH  051%=      5-min Rain = 0
KPD1 160332Z 15002KT 06/M03 A3003 RMK A01 T00601033  RH  051%=      5-min Rain = 0
KPD1 160333Z 14002KT 06/M03 A3004 RMK A01 T00601033  RH  051%=      5-min Rain = 0
KPD1 160334Z 14002KT 06/M03 A3004 RMK A01 T00601033  RH  051%=      5-min Rain = 0
KPD1 160335Z 12002KT 06/M03 A3004 RMK A01 T00591033  RH  051%=      5-min Rain = 0
KPD1 160336Z 11001KT 06/M03 A3004 RMK A01 T00601033  RH  052%=      5-min Rain = 0
KPD1 160337Z 10002KT 06/M03 A3004 RMK A01 T00601033  RH  052%=      5-min Rain = 0
KPD1 160338Z 10002KT 06/M03 A3004 RMK A01 T00601033  RH  051%=      5-min Rain = 0
KPD1 160339Z 10002KT 06/M03 A3004 RMK A01 T00601033  RH  051%=      5-min Rain = 0
KPD1 160340Z 11002KT 06/M03 A3004 RMK A01 T00601033  RH  051%=      5-min Rain = 0
KPD1 160341Z 12002KT 06/M03 A3004 RMK A01 T00591033  RH  051%=      5-min Rain = 0
KPD1 160342Z 12002KT 06/M03 A3004 RMK A01 T00591033  RH  052%=      5-min Rain = 0
KPD1 160343Z 12003KT 06/M03 A3004 RMK A01 T00591033  RH  052%=      5-min Rain = 0
KPD1 160344Z 13002KT 06/M03 A3004 RMK A01 T00581033  RH  052%=      5-min Rain = 0
KPD1 160345Z 14002KT 06/M03 A3004 RMK A01 T00571034  RH  052%=      5-min Rain = 0
KPD1 160346Z 15002KT 06/M03 A3004 RMK A01 T00571034  RH  052%=      5-min Rain = 0
KPD1 160347Z 15002KT 06/M03 A3004 RMK A01 T00561034  RH  052%=      5-min Rain = 0
KPD1 160348Z 15002KT 06/M03 A3004 RMK A01 T00561034  RH  052%=      5-min Rain = 0
KPD1 160349Z 15002KT 06/M03 A3004 RMK A01 T00561034  RH  052%=      5-min Rain = 0
KPD1 160350Z 14002KT 06/M04 A3004 RMK A01 T00551035  RH  052%=      5-min Rain = 0
KPD1 160351Z 14002KT 06/M03 A3004 RMK A01 T00551034  RH  053%=      5-min Rain = 0
KPD1 160352Z 14002KT 06/M03 A3005 RMK A01 T00551034  RH  053%=      5-min Rain = 0
KPD1 160353Z 13002KT 06/M03 A3005 RMK A01 T00551034  RH  053%=      5-min Rain = 0
KPD1 160354Z 13002KT 06/M03 A3005 RMK A01 T00551034  RH  053%=      5-min Rain = 0
KPD1 160355Z 12002KT 06/M03 A3005 RMK A01 T00551034  RH  053%=      5-min Rain = 0
KPD1 160356Z 13002KT 06/M03 A3005 RMK A01 T00551034  RH  053%=      5-min Rain = 0
KPD1 160357Z 13001KT 05/M03 A3005 RMK A01 T00541034  RH  053%=      5-min Rain = 0
KPD1 160358Z 13001KT 05/M03 A3005 RMK A01 T00541034  RH  053%=      5-min Rain = 0
KPD1 160359Z 14001KT 05/M03 A3005 RMK A01 T00531034  RH  053%=      5-min Rain = 0
KPD1 160400Z 14002KT 05/M03 A3005 RMK A01 T00541034  RH  053%=      5-min Rain = 0
KPD1 160401Z 15002KT 05/M03 A3005 RMK A01 T00541034  RH  053%=      5-min Rain = 0
KPD1 160402Z 16002KT 05/M03 A3005 RMK A01 T00541034  RH  053%=      5-min Rain = 0
KPD1 160403Z 17002KT 05/M03 A3005 RMK A01 T00531034  RH  053%=      5-min Rain = 0
KPD1 160404Z 17002KT 05/M03 A3005 RMK A01 T00531034  RH  053%=      5-min Rain = 0
KPD1 160405Z 18002KT 05/M03 A3005 RMK A01 T00531034  RH  054%=      5-min Rain = 0
KPD1 160406Z 18002KT 05/M03 A3005 RMK A01 T00541033  RH  054%=      5-min Rain = 0
KPD1 160407Z 18002KT 05/M03 A3005 RMK A01 T00541033  RH  054%=      5-min Rain = 0
KPD1 160408Z 16003KT 05/M03 A3005 RMK A01 T00541033  RH  054%=      5-min Rain = 0
KPD1 160409Z 16003KT 05/M03 A3005 RMK A01 T00541033  RH  053%=      5-min Rain = 0
KPD1 160410Z 15003KT 05/M03 A3005 RMK A01 T00541033  RH  053%=      5-min Rain = 0
KPD1 160411Z 15003KT 05/M03 A3005 RMK A01 T00531033  RH  054%=      5-min Rain = 0
KPD1 160412Z 15003KT 05/M03 A3005 RMK A01 T00531033  RH  054%=      5-min Rain = 0
KPD1 160413Z 14004KT 05/M03 A3005 RMK A01 T00521033  RH  054%=      5-min Rain = 0
KPD1 160414Z 14003KT 05/M03 A3005 RMK A01 T00521033  RH  054%=      5-min Rain = 0
KPD1 160415Z 14003KT 05/M03 A3005 RMK A01 T00521033  RH  054%=      5-min Rain = 0
KPD1 160416Z 13003KT 05/M03 A3005 RMK A01 T00531033  RH  054%=      5-min Rain = 0
KPD1 160417Z 13003KT 05/M03 A3005 RMK A01 T00531032  RH  054%=      5-min Rain = 0
KPD1 160418Z 12002KT 05/M03 A3005 RMK A01 T00531032  RH  054%=      5-min Rain = 0
KPD1 160419Z 14003KT 05/M03 A3005 RMK A01 T00531033  RH  054%=      5-min Rain = 0
KPD1 160420Z 16002KT 05/M03 A3005 RMK A01 T00521033  RH  054%=      5-min Rain = 0
KPD1 160421Z 17003KT 05/M03 A3005 RMK A01 T00511033  RH  054%=      5-min Rain = 0
KPD1 160422Z 17002KT 05/M03 A3005 RMK A01 T00511032  RH  055%=      5-min Rain = 0
KPD1 160423Z 17003KT 05/M03 A3005 RMK A01 T00521032  RH  055%=      5-min Rain = 0
KPD1 160424Z 17003KT 05/M03 A3005 RMK A01 T00521032  RH  055%=      5-min Rain = 0
KPD1 160425Z 17003KT 05/M03 A3005 RMK A01 T00531031  RH  055%=      5-min Rain = 0
KPD1 160426Z 18004KT 05/M03 A3005 RMK A01 T00541031  RH  054%=      5-min Rain = 0
KPD1 160427Z 18003KT 06/M03 A3005 RMK A01 T00551031  RH  054%=      5-min Rain = 0
KPD1 160428Z 17004KT 06/M03 A3005 RMK A01 T00551032  RH  054%=      5-min Rain = 0
KPD1 160429Z 17004KT 05/M03 A3005 RMK A01 T00541032  RH  054%=      5-min Rain = 0
KPD1 160430Z 16004KT 05/M03 A3005 RMK A01 T00541032  RH  054%=      5-min Rain = 0
KPD1 160431Z 16004KT 05/M03 A3005 RMK A01 T00541032  RH  054%=      5-min Rain = 0
KPD1 160432Z 16004KT 05/M03 A3005 RMK A01 T00531032  RH  054%=      5-min Rain = 0
KPD1 160433Z 16004KT 05/M03 A3005 RMK A01 T00531032  RH  054%=      5-min Rain = 0
KPD1 160434Z 15004KT 05/M03 A3005 RMK A01 T00531032  RH  054%=      5-min Rain = 0
KPD1 160435Z 15004KT 05/M03 A3005 RMK A01 T00541031  RH  054%=      5-min Rain = 0
KPD1 160436Z 14004KT 05/M03 A3005 RMK A01 T00541031  RH  054%=      5-min Rain = 0
KPD1 160437Z 14003KT 05/M03 A3005 RMK A01 T00541031  RH  054%=      5-min Rain = 0
KPD1 160438Z 14003KT 05/M03 A3005 RMK A01 T00541031  RH  054%=      5-min Rain = 0
KPD1 160439Z 13003KT 06/M03 A3005 RMK A01 T00551031  RH  054%=      5-min Rain = 0
KPD1 160440Z 13003KT 06/M03 A3005 RMK A01 T00551031  RH  054%=      5-min Rain = 0
KPD1 160441Z 14003KT 06/M03 A3005 RMK A01 T00551031  RH  054%=      5-min Rain = 0
KPD1 160442Z 13003KT 06/M03 A3005 RMK A01 T00561030  RH  054%=      5-min Rain = 0
KPD1 160443Z 14003KT 06/M03 A3005 RMK A01 T00571030  RH  054%=      5-min Rain = 0
KPD1 160444Z 13003KT 06/M03 A3006 RMK A01 T00571030  RH  053%=      5-min Rain = 0
KPD1 160445Z 14004KT 06/M03 A3006 RMK A01 T00571030  RH  053%=      5-min Rain = 0
KPD1 160446Z 14003KT 06/M03 A3006 RMK A01 T00571031  RH  053%=      5-min Rain = 0
KPD1 160447Z 14003KT 06/M03 A3006 RMK A01 T00581030  RH  053%=      5-min Rain = 0
KPD1 160448Z 14003KT 06/M03 A3006 RMK A01 T00581030  RH  053%=      5-min Rain = 0
KPD1 160449Z 14004KT 06/M03 A3006 RMK A01 T00571031  RH  053%=      5-min Rain = 0
KPD1 160450Z 14003KT 06/M03 A3006 RMK A01 T00571031  RH  053%=      5-min Rain = 0
KPD1 160451Z 14003KT 06/M03 A3006 RMK A01 T00561031  RH  054%=      5-min Rain = 0
KPD1 160452Z 15004KT 06/M03 A3006 RMK A01 T00561031  RH  054%=      5-min Rain = 0
KPD1 160453Z 15003KT 06/M03 A3006 RMK A01 T00551031  RH  054%=      5-min Rain = 0
KPD1 160454Z 15004KT 05/M03 A3006 RMK A01 T00541031  RH  054%=      5-min Rain = 0
KPD1 160455Z 15004KT 05/M03 A3006 RMK A01 T00541031  RH  054%=      5-min Rain = 0
KPD1 160456Z 15005KT 05/M03 A3006 RMK A01 T00541031  RH  054%=      5-min Rain = 0
KPD1 160457Z 14004KT 05/M03 A3006 RMK A01 T00531031  RH  055%=      5-min Rain = 0
KPD1 160458Z 15005KT 05/M03 A3006 RMK A01 T00531031  RH  055%=      5-min Rain = 0
KPD1 160459Z 15004KT 05/M03 A3006 RMK A01 T00531031  RH  055%=      5-min Rain = 0
KPD1 160500Z 15004KT 05/M03 A3006 RMK A01 T00531031  RH  055%=      5-min Rain = 0
KPD1 160501Z 15004KT 05/M03 A3006 RMK A01 T00521031  RH  055%=      5-min Rain = 0
KPD1 160502Z 15004KT 05/M03 A3006 RMK A01 T00521031  RH  055%=      5-min Rain = 0
KPD1 160503Z 15004KT 05/M03 A3006 RMK A01 T00521031  RH  055%=      5-min Rain = 0
KPD1 160504Z 15004KT 05/M03 A3006 RMK A01 T00521031  RH  055%=      5-min Rain = 0
KPD1 160505Z 16004KT 05/M03 A3006 RMK A01 T00511031  RH  055%=      5-min Rain = 0
KPD1 160506Z 16004KT 05/M03 A3006 RMK A01 T00511031  RH  055%=      5-min Rain = 0
KPD1 160507Z 17004KT 05/M03 A3006 RMK A01 T00501031  RH  056%=      5-min Rain = 0
KPD1 160508Z 16004KT 05/M03 A3006 RMK A01 T00501031  RH  056%=      5-min Rain = 0
KPD1 160509Z 16004KT 05/M03 A3005 RMK A01 T00501031  RH  056%=      5-min Rain = 0
KPD1 160510Z 16004KT 05/M03 A3005 RMK A01 T00501031  RH  056%=      5-min Rain = 0
KPD1 160511Z 16004KT 05/M03 A3005 RMK A01 T00501031  RH  056%=      5-min Rain = 0
KPD1 160512Z 16005KT 05/M03 A3005 RMK A01 T00501031  RH  056%=      5-min Rain = 0
KPD1 160513Z 16004KT 05/M03 A3005 RMK A01 T00501031  RH  056%=      5-min Rain = 0
KPD1 160514Z 16004KT 05/M03 A3005 RMK A01 T00501031  RH  056%=      5-min Rain = 0
KPD1 160515Z 15004KT 05/M03 A3005 RMK A01 T00501031  RH  056%=      5-min Rain = 0
KPD1 160516Z 16004KT 05/M03 A3005 RMK A01 T00501031  RH  056%=      5-min Rain = 0
KPD1 160517Z 15004KT 05/M03 A3005 RMK A01 T00491031  RH  056%=      5-min Rain = 0
KPD1 160518Z 15007KT 05/M03 A3005 RMK A01 T00491031  RH  056%=      5-min Rain = 0
KPD1 160519Z 16005KT 05/M03 A3005 RMK A01 T00511030  RH  056%=      5-min Rain = 0
KPD1 160520Z 15005KT 05/M03 A3005 RMK A01 T00511030  RH  056%=      5-min Rain = 0
KPD1 160521Z 15006KT 05/M03 A3005 RMK A01 T00521030  RH  056%=      5-min Rain = 0
KPD1 160522Z 16005KT 05/M03 A3005 RMK A01 T00531028  RH  056%=      5-min Rain = 0
KPD1 160523Z 15005KT 05/M03 A3005 RMK A01 T00531028  RH  056%=      5-min Rain = 0
KPD1 160524Z 14005KT 05/M03 A3005 RMK A01 T00541027  RH  056%=      5-min Rain = 0
KPD1 160525Z 15005KT 05/M03 A3005 RMK A01 T00541026  RH  056%=      5-min Rain = 0
KPD1 160526Z 15005KT 05/M03 A3005 RMK A01 T00541026  RH  056%=      5-min Rain = 0
KPD1 160527Z 16004KT 05/M03 A3005 RMK A01 T00541027  RH  056%=      5-min Rain = 0
KPD1 160528Z 16006KT 05/M03 A3005 RMK A01 T00541027  RH  056%=      5-min Rain = 0
KPD1 160529Z 17005KT 05/M03 A3005 RMK A01 T00541026  RH  056%=      5-min Rain = 0
KPD1 160530Z 16006KT 05/M03 A3005 RMK A01 T00541026  RH  056%=      5-min Rain = 0
KPD1 160531Z 16007KT 05/M03 A3005 RMK A01 T00541026  RH  056%=      5-min Rain = 0
KPD1 160532Z 15007KT 05/M03 A3005 RMK A01 T00541026  RH  057%=      5-min Rain = 0
KPD1 160533Z 15005KT 05/M03 A3005 RMK A01 T00531026  RH  057%=      5-min Rain = 0
KPD1 160534Z 18005KT 05/M03 A3005 RMK A01 T00531025  RH  057%=      5-min Rain = 0
KPD1 160535Z 19004KT 05/M03 A3005 RMK A01 T00531025  RH  057%=      5-min Rain = 0
KPD1 160536Z 18004KT 05/M03 A3005 RMK A01 T00531025  RH  057%=      5-min Rain = 0
KPD1 160537Z 17004KT 05/M03 A3005 RMK A01 T00521026  RH  057%=      5-min Rain = 0
KPD1 160538Z 16006KT 05/M03 A3005 RMK A01 T00521026  RH  057%=      5-min Rain = 0
KPD1 160539Z 15007KT 05/M03 A3005 RMK A01 T00511026  RH  058%=      5-min Rain = 0
KPD1 160540Z 15007KT 05/M03 A3005 RMK A01 T00511026  RH  058%=      5-min Rain = 0
KPD1 160541Z 16006KT 05/M03 A3005 RMK A01 T00511026  RH  058%=      5-min Rain = 0
KPD1 160542Z 17004KT 05/M03 A3005 RMK A01 T00521025  RH  057%=      5-min Rain = 0
KPD1 160543Z 17004KT 05/M03 A3005 RMK A01 T00531025  RH  057%=      5-min Rain = 0
KPD1 160544Z 18004KT 05/M03 A3005 RMK A01 T00531025  RH  057%=      5-min Rain = 0
KPD1 160545Z 18003KT 05/M03 A3005 RMK A01 T00531025  RH  057%=      5-min Rain = 0
KPD1 160546Z 17002KT 05/M03 A3005 RMK A01 T00531025  RH  057%=      5-min Rain = 0
KPD1 160547Z 17003KT 05/M03 A3005 RMK A01 T00521026  RH  057%=      5-min Rain = 0
KPD1 160548Z 16003KT 05/M03 A3005 RMK A01 T00511026  RH  057%=      5-min Rain = 0
KPD1 160549Z 16004KT 05/M03 A3005 RMK A01 T00511026  RH  058%=      5-min Rain = 0
KPD1 160550Z 16004KT 05/M03 A3005 RMK A01 T00501026  RH  058%=      5-min Rain = 0
KPD1 160551Z 16004KT 05/M03 A3005 RMK A01 T00491027  RH  058%=      5-min Rain = 0
KPD1 160552Z 16004KT 05/M03 A3005 RMK A01 T00481027  RH  058%=      5-min Rain = 0
KPD1 160553Z 16004KT 05/M03 A3004 RMK A01 T00481027  RH  058%=      5-min Rain = 0
KPD1 160554Z 16004KT 05/M03 A3004 RMK A01 T00471027  RH  059%=      5-min Rain = 0
KPD1 160555Z 16004KT 05/M03 A3004 RMK A01 T00471027  RH  059%=      5-min Rain = 0
KPD1 160556Z 16004KT 05/M03 A3004 RMK A01 T00461028  RH  059%=      5-min Rain = 0
KPD1 160557Z 16004KT 05/M03 A3004 RMK A01 T00451027  RH  059%=      5-min Rain = 0
KPD1 160558Z 17004KT 05/M03 A3004 RMK A01 T00451027  RH  059%=      5-min Rain = 0
KPD1 160559Z 17004KT 05/M03 A3004 RMK A01 T00451027  RH  059%=      5-min Rain = 0

Page generated in 0.0716 seconds.